Zarling — WDD7883 — position and weather

sailwx.info

Track history (hours):
 
Tides and Currents Weather Stations Pressure Air Temp Water Temp Dewpoint Dewpoint Depression Visibility Wind Speed Wind Dir Waves Ship Positions

Zarling

Owner: Clean Rivers Co-op, Portland, OR. More information available from US FCC via Universal Licensing System.

Last reported at 2016-Jul-28 00:33 UTC. Time now 2016-Jul-28 01:02 UTC.
Position N 45°34' W 122°45'.

Length 12 m.

Type: Pollution control. MMSI: 3699126.

Date/timePositionNaut miles runAvg speedWind from/ knotsBaromVisibWave heightAir tempDewpointWater temp
2016-Jul-28 00:33N 45°34' W 122°45'322991.7
2016-Jul-28 00:32N 46°05' W 122°56'29614.5
2016-Jul-28 00:29N 45°37' W 122°48'566082.0
2016-Jul-28 00:29N 46°11' W 123°51'2021.0
2016-Jul-27 23:33N 46°12' W 123°23'473759.4
2016-Jul-27 23:32N 45°34' W 122°45'3211667.6
2016-Jul-27 23:32N 46°05' W 122°56'396397.8
2016-Jul-27 23:32N 46°11' W 123°51'561338.0
2016-Jul-27 23:29N 45°37' W 122°48'4345.8
2016-Jul-27 22:33N 46°12' W 123°23'433430.4
2016-Jul-27 22:32N 45°37' W 122°48'566474.4
2016-Jul-27 22:32N 46°11' W 123°51'601463.1
2016-Jul-27 22:29N 45°34' W 122°45'32315.3
2016-Jul-27 22:23N 46°05' W 122°56'3238.3
2016-Jul-27 21:32N 45°34' W 122°45'327293.6
2016-Jul-27 21:32N 46°05' W 122°56'396119.6
2016-Jul-27 21:32N 46°11' W 123°51'561347.0
2016-Jul-27 21:29N 45°37' W 122°48'43127.3
2016-Jul-27 21:09N 46°12' W 123°23'2031.5
2016-Jul-27 20:32N 46°11' W 123°51'601536.4
2016-Jul-27 20:29N 45°34' W 122°45'41854.7
2016-Jul-27 20:29N 45°37' W 122°48'29277.5
2016-Jul-27 20:23N 46°05' W 122°56'2024.4
2016-Jul-27 19:33N 46°12' W 123°23'474229.8
2016-Jul-27 19:32N 45°34' W 122°45'42119.6
2016-Jul-27 19:32N 45°37' W 122°48'566920.9
2016-Jul-27 19:32N 46°11' W 123°51'39896.5
2016-Jul-27 19:29N 46°05' W 122°56'3234.2
2016-Jul-27 18:32N 45°34' W 122°45'43705.0
2016-Jul-27 18:32N 45°37' W 122°48'299385.5
2016-Jul-27 18:32N 46°05' W 122°56'396702.5
2016-Jul-27 18:32N 46°11' W 123°51'2020.0
2016-Jul-27 17:33N 46°12' W 123°23'201332.6
2016-Jul-27 17:32N 46°05' W 122°56'396119.6
2016-Jul-27 17:32N 46°11' W 123°51'60659.7
2016-Jul-27 17:26N 45°34' W 122°45'42964.0
2016-Jul-27 17:26N 45°37' W 122°48'2528.9
2016-Jul-27 16:33N 46°02' W 122°53'232913.7
2016-Jul-27 16:33N 46°12' W 123°23'20868.7
2016-Jul-27 16:32N 46°11' W 123°51'601493.6
2016-Jul-27 16:29N 45°34' W 122°45'42964.0
2016-Jul-27 16:29N 45°37' W 122°48'2728.9
2016-Jul-27 15:33N 46°04' W 122°54'312076.5
2016-Jul-27 15:32N 45°34' W 122°45'41483.7
2016-Jul-27 15:32N 45°37' W 122°48'567433.5
2016-Jul-27 15:32N 46°11' W 123°51'4141.9
2016-Jul-27 14:33N 46°04' W 122°54'411516.1
2016-Jul-27 14:32N 46°11' W 123°51'601504.1
2016-Jul-27 14:29N 45°34' W 122°45'42119.6
2016-Jul-27 14:29N 45°37' W 122°48'43180.8
2016-Jul-27 14:15N 46°12' W 123°23'2536.4
2016-Jul-27 13:33N 46°01' W 122°51'252742.2
2016-Jul-27 13:33N 46°12' W 123°23'20913.8
2016-Jul-27 13:32N 46°11' W 123°51'56604.5
2016-Jul-27 13:26N 45°37' W 122°48'487.3
2016-Jul-27 13:23N 45°34' W 122°45'4756.0
2016-Jul-27 12:33N 46°12' W 123°23'433589.9
2016-Jul-27 12:32N 45°37' W 122°48'566920.9
2016-Jul-27 12:32N 46°11' W 123°51'601483.4
2016-Jul-27 12:29N 45°34' W 122°45'32752.9
2016-Jul-27 12:27N 46°05' W 122°56'3942.7
2016-Jul-27 11:32N 46°11' W 123°51'391135.1
2016-Jul-27 11:30N 46°05' W 122°56'20449.6
2016-Jul-27 11:27N 46°12' W 123°23'47424.0
2016-Jul-27 11:20N 45°34' W 122°45'478.9
2016-Jul-27 11:17N 45°37' W 122°48'2936.2
2016-Jul-27 10:30N 46°05' W 122°56'392559.1
2016-Jul-27 10:29N 46°11' W 123°51'601514.6
2016-Jul-27 10:26N 45°34' W 122°45'476.8
2016-Jul-27 10:23N 45°37' W 122°48'5665.0
2016-Jul-27 09:32N 46°11' W 123°51'601514.6
2016-Jul-27 09:29N 45°34' W 122°45'41347.3
2016-Jul-27 09:29N 45°37' W 122°48'43490.1
2016-Jul-27 09:24N 46°12' W 123°23'205234.7
2016-Jul-27 09:24N 46°05' W 122°56'3945.2
2016-Jul-27 08:32N 46°11' W 123°51'601483.3
2016-Jul-27 08:29N 45°34' W 122°45'41646.7
2016-Jul-27 08:29N 45°37' W 122°48'431143.5
2016-Jul-27 08:27N 46°12' W 123°23'20379.7
2016-Jul-27 08:24N 46°05' W 122°56'3237.9
2016-Jul-27 07:32N 45°34' W 122°45'41852.5
2016-Jul-27 07:32N 45°37' W 122°48'566474.4
2016-Jul-27 07:32N 46°11' W 123°51'391163.2
2016-Jul-27 07:30N 46°05' W 122°56'3940.5
2016-Jul-27 06:32N 46°11' W 123°51'391135.1
2016-Jul-27 06:30N 46°05' W 122°56'293226.3
2016-Jul-27 06:29N 45°37' W 122°48'487.8
2016-Jul-27 06:26N 45°34' W 122°45'0 0.0
2016-Jul-27 05:32N 45°34' W 122°45'41235.0
2016-Jul-27 05:32N 45°37' W 122°48'56998.5
2016-Jul-27 05:29N 46°11' W 123°51'39463.0
2016-Jul-27 05:24N 46°05' W 122°56'3237.9
2016-Jul-27 04:32N 45°34' W 122°45'41854.7
2016-Jul-27 04:32N 45°37' W 122°48'567718.9
2016-Jul-27 04:32N 46°11' W 123°51'39212.6
2016-Jul-27 04:21N 46°05' W 122°56'20103.5
2016-Jul-27 04:09N 46°12' W 123°23'4777.1
2016-Jul-27 03:32N 45°34' W 122°45'41058.6
2016-Jul-27 03:32N 45°37' W 122°48'5610035.3
2016-Jul-27 03:32N 46°11' W 123°51'20148.8
2016-Jul-27 03:24N 46°12' W 123°23'20132.3
2016-Jul-27 03:15N 46°05' W 122°56'2940.5
2016-Jul-27 02:32N 45°37' W 122°48'568028.2
2016-Jul-27 02:32N 46°11' W 123°51'391135.1
2016-Jul-27 02:30N 46°05' W 122°56'325557.0
2016-Jul-27 02:29N 45°34' W 122°45'47335.7
2016-Jul-27 02:21N 46°12' W 123°23'4758.1
2016-Jul-27 01:32N 45°34' W 122°45'4927.3
2016-Jul-27 01:32N 45°37' W 122°48'5610563.5
2016-Jul-27 01:32N 46°11' W 123°51'391099.6
2016-Jul-27 01:30N 46°05' W 122°56'2021.5
2016-Jul-27 00:33N 46°12' W 123°23'205637.4
2016-Jul-27 00:33N 46°05' W 122°56'392655.7
2016-Jul-27 00:32N 46°11' W 123°51'601443.5
2016-Jul-27 00:29N 45°34' W 122°45'41235.0
2016-Jul-27 00:29N 45°37' W 122°48'4 4.4
2016-Jul-26 23:32N 45°34' W 122°45'606145.1
2016-Jul-26 23:32N 46°11' W 123°51'391108.3
2016-Jul-26 23:30N 46°05' W 122°56'293128.5
2016-Jul-26 23:29N 45°37' W 122°48'5658.4
2016-Jul-26 22:32N 46°11' W 123°51'561223.8
2016-Jul-26 22:29N 45°37' W 122°48'493.2
2016-Jul-26 22:26N 45°34' W 122°45'32702.9
2016-Jul-26 22:24N 46°05' W 122°56'3238.0
2016-Jul-26 21:32N 45°34' W 122°45'605659.9
2016-Jul-26 21:32N 46°11' W 123°51'561262.2
2016-Jul-26 21:29N 45°37' W 122°48'29315.7
2016-Jul-26 21:24N 46°05' W 122°56'2082.7
2016-Jul-26 21:09N 46°12' W 123°23'0 0.0
2016-Jul-26 20:33N 46°12' W 123°23'433216.0
2016-Jul-26 20:32N 45°37' W 122°48'5611805.4
2016-Jul-26 20:32N 46°11' W 123°51'601493.6
2016-Jul-26 20:29N 45°34' W 122°45'32165.8
2016-Jul-26 20:18N 46°05' W 122°56'2027.3
2016-Jul-26 19:33N 46°12' W 123°23'475639.1
2016-Jul-26 19:32N 45°34' W 122°45'32711.4
2016-Jul-26 19:30N 46°05' W 122°56'392872.5
2016-Jul-26 19:29N 46°11' W 123°51'56383.0
2016-Jul-26 19:20N 45°37' W 122°48'4354.5
2016-Jul-26 18:33N 46°12' W 123°23'475834.2
2016-Jul-26 18:32N 45°34' W 122°45'4824.3
2016-Jul-26 18:32N 45°37' W 122°48'5611150.3
2016-Jul-26 18:32N 46°11' W 123°51'39209.8
2016-Jul-26 18:21N 46°05' W 122°56'2025.6
2016-Jul-26 17:33N 46°12' W 123°23'201116.9
2016-Jul-26 17:32N 46°11' W 123°51'601504.0
2016-Jul-26 17:29N 45°34' W 122°45'4741.0
2016-Jul-26 17:29N 45°37' W 122°48'29315.7
2016-Jul-26 17:24N 46°05' W 122°56'3237.9
2016-Jul-26 16:32N 45°34' W 122°45'4926.3
2016-Jul-26 16:32N 45°37' W 122°48'5610563.5
2016-Jul-26 16:32N 46°11' W 123°51'391135.1
2016-Jul-26 16:30N 46°05' W 122°56'3234.0
2016-Jul-26 15:32N 45°34' W 122°45'4674.4
2016-Jul-26 15:32N 45°37' W 122°48'5614335.2
2016-Jul-26 15:32N 46°11' W 123°51'3989.6
2016-Jul-26 15:06N 46°05' W 122°56'3258.5
2016-Jul-26 14:32N 45°34' W 122°45'4780.9
2016-Jul-26 14:32N 45°37' W 122°48'5612544.1
2016-Jul-26 14:32N 46°11' W 123°51'39287.8
2016-Jul-26 14:24N 46°05' W 122°56'2934.4
2016-Jul-26 13:34N 45°37' W 122°48'4209.0
2016-Jul-26 13:32N 45°34' W 122°45'601000.4
2016-Jul-26 13:29N 46°11' W 123°51'39451.1
2016-Jul-26 13:24N 46°05' W 122°56'3238.0
2016-Jul-26 12:32N 45°34' W 122°45'605812.9
2016-Jul-26 12:32N 46°11' W 123°51'391042.6
2016-Jul-26 12:30N 46°05' W 122°56'29123.1
2016-Jul-26 12:16N 45°37' W 122°48'4 5.7
2016-Jul-26 11:32N 45°34' W 122°45'606721.2
2016-Jul-26 11:32N 46°11' W 123°51'562606.4
2016-Jul-26 11:31N 45°37' W 122°48'291780.0
2016-Jul-26 11:30N 46°05' W 122°56'3234.0
2016-Jul-26 10:32N 45°34' W 122°45'606325.8
2016-Jul-26 10:32N 46°11' W 123°51'56462.5
2016-Jul-26 10:25N 45°37' W 122°48'291692.5
2016-Jul-26 10:24N 46°05' W 122°56'2082.8
2016-Jul-26 10:09N 46°12' W 123°23'2033.7
2016-Jul-26 09:33N 46°05' W 122°56'392994.7
2016-Jul-26 09:32N 46°11' W 123°51'56460.3
2016-Jul-26 09:25N 45°37' W 122°48'4208.7
2016-Jul-26 09:23N 45°34' W 122°45'47328.5
2016-Jul-26 09:15N 46°12' W 123°23'0 0.0
2016-Jul-26 08:33N 46°12' W 123°23'477048.9
2016-Jul-26 08:32N 45°34' W 122°45'606145.1
2016-Jul-26 08:32N 46°11' W 123°51'391050.4
2016-Jul-26 08:30N 46°05' W 122°56'29853.2
2016-Jul-26 08:28N 45°37' W 122°48'5660.1
2016-Jul-26 07:32N 46°11' W 123°51'391027.4
2016-Jul-26 07:30N 46°05' W 122°56'29853.2
2016-Jul-26 07:28N 45°37' W 122°48'459.8
2016-Jul-26 07:23N 45°34' W 122°45'0 0.0
2016-Jul-26 06:32N 45°34' W 122°45'605812.9
2016-Jul-26 06:32N 46°11' W 123°51'39445.4
2016-Jul-26 06:27N 46°05' W 122°56'29860.3
2016-Jul-26 06:25N 45°37' W 122°48'4 4.7
2016-Jul-26 05:33N 45°34' W 122°45'605974.4
2016-Jul-26 05:32N 46°11' W 123°51'391042.6
2016-Jul-26 05:30N 46°05' W 122°56'29340.7
2016-Jul-26 05:25N 45°37' W 122°48'5663.5
2016-Jul-26 04:32N 46°11' W 123°51'391034.9
2016-Jul-26 04:30N 46°05' W 122°56'3214587.2
2016-Jul-26 04:29N 45°34' W 122°45'4130.2
2016-Jul-26 04:28N 45°37' W 122°48'5660.1
2016-Jul-26 03:32N 46°11' W 123°51'562447.6
2016-Jul-26 03:31N 45°37' W 122°48'291749.8
2016-Jul-26 03:30N 46°05' W 122°56'3238892.1
2016-Jul-26 03:30N 45°34' W 122°45'47192.0
2016-Jul-26 03:15N 46°12' W 123°23'0 0.0
2016-Jul-26 02:33N 46°12' W 123°23'431135.1
2016-Jul-26 02:31N 45°37' W 122°48'4224.5
2016-Jul-26 02:29N 45°34' W 122°45'607169.2
2016-Jul-26 02:29N 46°11' W 123°51'39438.5
2016-Jul-26 02:24N 46°05' W 122°56'3945.4
2016-Jul-26 01:32N 46°11' W 123°51'391012.6
2016-Jul-26 01:30N 46°05' W 122°56'3219446.0
2016-Jul-26 01:30N 45°34' W 122°45'4131.2
2016-Jul-26 01:28N 45°37' W 122°48'433355.8
2016-Jul-26 01:27N 46°12' W 123°23'2021.4
2016-Jul-26 00:32N 46°11' W 123°51'56766.1
2016-Jul-26 00:28N 45°37' W 122°48'433589.9
2016-Jul-26 00:27N 46°12' W 123°23'47833.4
2016-Jul-26 00:24N 45°34' W 122°45'32218.5
2016-Jul-26 00:15N 46°05' W 122°56'3246.2
2016-Jul-25 23:32N 45°34' W 122°45'4134.9
2016-Jul-25 23:31N 45°37' W 122°48'561929.9
2016-Jul-25 23:29N 46°11' W 123°51'20567.4
2016-Jul-25 23:27N 46°12' W 123°23'20133.5
2016-Jul-25 23:18N 46°05' W 122°56'2939.0
2016-Jul-25 22:34N 45°37' W 122°48'4449.1
2016-Jul-25 22:33N 45°34' W 122°45'603360.6
2016-Jul-25 22:32N 46°11' W 123°51'39280.9
2016-Jul-25 22:24N 46°05' W 122°56'3945.4
2016-Jul-25 21:32N 46°11' W 123°51'562447.6
2016-Jul-25 21:31N 45°37' W 122°48'291692.5
2016-Jul-25 21:30N 46°05' W 122°56'3258348.6
2016-Jul-25 21:30N 45°34' W 122°45'47325.4
2016-Jul-25 21:21N 46°12' W 123°23'0 0.0
2016-Jul-25 20:33N 46°12' W 123°23'478459.6
2016-Jul-25 20:33N 45°34' W 122°45'607169.2
2016-Jul-25 20:32N 46°11' W 123°51'562280.6
2016-Jul-25 20:31N 45°37' W 122°48'291811.2
2016-Jul-25 20:30N 46°05' W 122°56'3234.1
2016-Jul-25 19:33N 45°34' W 122°45'606517.5
2016-Jul-25 19:32N 46°11' W 123°51'562361.1
2016-Jul-25 19:31N 45°37' W 122°48'29246.4
2016-Jul-25 19:24N 46°05' W 122°56'2082.8
2016-Jul-25 19:09N 46°12' W 123°23'2029.4
2016-Jul-25 18:29N 46°11' W 123°51'562418.1
2016-Jul-25 18:28N 45°37' W 122°48'433355.8
2016-Jul-25 18:27N 46°12' W 123°23'4710574.4
2016-Jul-25 18:27N 45°34' W 122°45'32655.6
2016-Jul-25 18:24N 46°05' W 122°56'3945.5
2016-Jul-25 17:32N 46°11' W 123°51'562361.2
2016-Jul-25 17:31N 45°37' W 122°48'4243.0
2016-Jul-25 17:30N 45°34' W 122°45'471019.1
2016-Jul-25 17:27N 46°12' W 123°23'20132.3
2016-Jul-25 17:18N 46°05' W 122°56'3951.4
2016-Jul-25 16:32N 46°11' W 123°51'562361.2
2016-Jul-25 16:31N 45°37' W 122°48'291911.9
2016-Jul-25 16:30N 46°05' W 122°56'32752.9
2016-Jul-25 16:27N 45°34' W 122°45'47230.8
2016-Jul-25 16:15N 46°12' W 123°23'4767.5
2016-Jul-25 15:33N 45°34' W 122°45'603525.8
2016-Jul-25 15:32N 46°11' W 123°51'39279.8
2016-Jul-25 15:24N 46°05' W 122°56'20433.6
2016-Jul-25 15:21N 46°12' W 123°23'433675.4
2016-Jul-25 15:20N 45°37' W 122°48'4 5.3
2016-Jul-25 14:33N 45°34' W 122°45'4260.3
2016-Jul-25 14:32N 45°37' W 122°48'56100346.2
2016-Jul-25 14:32N 46°11' W 123°51'39114.4
2016-Jul-25 14:12N 46°05' W 122°56'2031.5
2016-Jul-25 13:33N 46°12' W 123°23'4712085.1
2016-Jul-25 13:33N 45°34' W 122°45'4449.6
2016-Jul-25 13:32N 45°37' W 122°48'5640141.1
2016-Jul-25 13:32N 46°11' W 123°51'39280.4
2016-Jul-25 13:24N 46°05' W 122°56'3238.1
2016-Jul-25 12:33N 45°34' W 122°45'4549.5
2016-Jul-25 12:32N 45°37' W 122°48'5666901.9
2016-Jul-25 12:32N 46°11' W 123°51'39970.7
2016-Jul-25 12:30N 46°05' W 122°56'0 0.0
2016-Jul-25 11:33N 46°05' W 122°56'394691.6
2016-Jul-25 11:32N 46°11' W 123°51'601473.1
2016-Jul-25 11:30N 45°34' W 122°45'470.3
2016-Jul-25 11:26N 45°37' W 122°48'43228.0
2016-Jul-25 11:15N 46°12' W 123°23'4360.2
2016-Jul-25 10:32N 45°37' W 122°48'56200705.6
2016-Jul-25 10:32N 46°11' W 123°51'601483.3
2016-Jul-25 10:30N 45°34' W 122°45'3238892.1
2016-Jul-25 10:30N 46°05' W 122°56'0 0.0
2016-Jul-25 09:33N 46°05' W 122°56'32116676.3
2016-Jul-25 09:33N 45°34' W 122°45'606517.5
2016-Jul-25 09:32N 46°11' W 123°51'20224.8
2016-Jul-25 09:27N 46°12' W 123°23'43382.1
2016-Jul-25 09:20N 45°37' W 122°48'2936.2
2016-Jul-25 08:33N 46°05' W 122°56'394853.5
2016-Jul-25 08:32N 46°11' W 123°51'56200705.6
2016-Jul-25 08:32N 45°37' W 122°48'4101.6
2016-Jul-25 08:30N 45°34' W 122°45'47321.0
2016-Jul-25 08:21N 46°12' W 123°23'4352.9
2016-Jul-25 07:32N 45°37' W 122°48'5618246.0
2016-Jul-25 07:32N 46°11' W 123°51'39279.8
2016-Jul-25 07:24N 46°05' W 122°56'20455.2
2016-Jul-25 07:21N 46°12' W 123°23'47881.2
2016-Jul-25 07:18N 45°34' W 122°45'4762.9
2016-Jul-25 06:33N 46°12' W 123°23'4716919.1
2016-Jul-25 06:33N 45°34' W 122°45'606938.4
2016-Jul-25 06:32N 46°11' W 123°51'39424.0
2016-Jul-25 06:27N 46°05' W 122°56'29179.5
2016-Jul-25 06:17N 45°37' W 122°48'4 5.6
2016-Jul-25 05:33N 45°34' W 122°45'4494.0
2016-Jul-25 05:32N 45°37' W 122°48'5620070.6
2016-Jul-25 05:32N 46°11' W 123°51'39944.6
2016-Jul-25 05:30N 46°05' W 122°56'0 0.0
2016-Jul-25 04:33N 46°05' W 122°56'293441.4
2016-Jul-25 04:32N 45°37' W 122°48'4105.2
2016-Jul-25 04:30N 45°34' W 122°45'0 0.0
2016-Jul-25 03:33N 45°34' W 122°45'604779.5
2016-Jul-25 03:32N 46°11' W 123°51'39957.5
2016-Jul-25 03:30N 46°05' W 122°56'293441.4
2016-Jul-25 03:29N 45°37' W 122°48'5658.9
2016-Jul-25 02:32N 46°11' W 123°51'5620070.6
2016-Jul-25 02:32N 45°37' W 122°48'4105.9
2016-Jul-25 02:30N 45°34' W 122°45'47180.4
2016-Jul-25 02:14N 46°12' W 123°23'20485.3
2016-Jul-25 02:12N 46°05' W 122°56'0 0.0
2016-Jul-25 01:33N 46°05' W 122°56'293441.4
2016-Jul-25 01:32N 45°37' W 122°48'5650176.4
2016-Jul-25 01:32N 46°11' W 123°51'60252.1
2016-Jul-25 01:18N 45°34' W 122°45'3243.0
2016-Jul-25 00:33N 46°05' W 122°56'397037.6
2016-Jul-25 00:32N 46°11' W 123°51'601424.4
2016-Jul-25 00:30N 45°34' W 122°45'474126.6
2016-Jul-25 00:29N 46°12' W 123°23'43852.9
2016-Jul-25 00:26N 45°37' W 122°48'4 4.6
2016-Jul-24 23:33N 45°34' W 122°45'3211667.6
2016-Jul-24 23:33N 46°05' W 122°56'293441.4
2016-Jul-24 23:32N 45°37' W 122°48'43107.1
2016-Jul-24 23:08N 46°12' W 123°23'2032.6
2016-Jul-24 22:32N 46°11' W 123°51'56552.9
2016-Jul-24 22:26N 45°37' W 122°48'4105.2
2016-Jul-24 22:24N 45°34' W 122°45'6069.5
2016-Jul-24 21:32N 46°11' W 123°51'601525.5
2016-Jul-24 21:30N 45°34' W 122°45'3211669.7
2016-Jul-24 21:30N 46°05' W 122°56'29489.3
2016-Jul-24 21:26N 45°37' W 122°48'43142.9
2016-Jul-24 21:08N 46°12' W 123°23'4779.5
2016-Jul-24 20:33N 45°34' W 122°45'606145.1
2016-Jul-24 20:32N 46°11' W 123°51'39964.0
2016-Jul-24 20:30N 46°05' W 122°56'293441.4
2016-Jul-24 20:29N 45°37' W 122°48'43848.2
2016-Jul-24 20:26N 46°12' W 123°23'4752.9
2016-Jul-24 19:33N 45°34' W 122°45'474229.8
2016-Jul-24 19:32N 46°12' W 123°23'20482.1
2016-Jul-24 19:30N 46°05' W 122°56'29179.5
2016-Jul-24 19:20N 45°37' W 122°48'2936.3
2016-Jul-24 18:33N 46°05' W 122°56'394691.7
2016-Jul-24 18:32N 46°11' W 123°51'60665.9
2016-Jul-24 18:27N 45°34' W 122°45'0 0.0
2016-Jul-24 17:33N 45°34' W 122°45'4370.5
2016-Jul-24 17:32N 45°37' W 122°48'43437.3
2016-Jul-24 17:26N 46°12' W 123°23'20142.6
2016-Jul-24 17:18N 46°05' W 122°56'0 0.0
2016-Jul-24 16:33N 46°05' W 122°56'202442.9
2016-Jul-24 16:32N 46°12' W 123°23'2017590.9
2016-Jul-24 16:32N 46°11' W 123°51'60674.3
2016-Jul-24 16:27N 45°34' W 122°45'6065.6
2016-Jul-24 15:32N 46°11' W 123°51'5640141.1
2016-Jul-24 15:32N 45°37' W 122°48'4113.3
2016-Jul-24 15:30N 45°34' W 122°45'32611.0
2016-Jul-24 15:27N 46°05' W 122°56'3943.0
2016-Jul-24 14:32N 46°11' W 123°51'39896.5
2016-Jul-24 14:30N 46°05' W 122°56'29491.6
2016-Jul-24 14:26N 45°37' W 122°48'431816.1
2016-Jul-24 14:25N 46°12' W 123°23'473253.3
2016-Jul-24 14:24N 45°34' W 122°45'0 0.0
2016-Jul-24 13:33N 45°34' W 122°45'327779.8
2016-Jul-24 13:33N 46°05' W 122°56'396702.5
2016-Jul-24 13:32N 46°11' W 123°51'5625088.2
2016-Jul-24 13:32N 45°37' W 122°48'43190.8
2016-Jul-24 13:19N 46°12' W 123°23'2025.3
2016-Jul-24 12:32N 46°11' W 123°51'5622300.6
2016-Jul-24 12:32N 45°37' W 122°48'43573.9
2016-Jul-24 12:28N 46°12' W 123°23'201242.1
2016-Jul-24 12:27N 46°05' W 122°56'32221.0
2016-Jul-24 12:18N 45°34' W 122°45'4 5.4
2016-Jul-24 11:32N 45°37' W 122°48'431816.1
2016-Jul-24 11:31N 46°12' W 123°23'473452.9
2016-Jul-24 11:30N 45°34' W 122°45'605659.9
2016-Jul-24 11:29N 46°11' W 123°51'39908.1
2016-Jul-24 11:27N 46°05' W 122°56'3236.2
2016-Jul-24 10:33N 45°34' W 122°45'325833.8
2016-Jul-24 10:33N 46°05' W 122°56'398797.0
2016-Jul-24 10:32N 46°11' W 123°51'5614336.1
2016-Jul-24 10:32N 45°37' W 122°48'43348.5
2016-Jul-24 10:25N 46°12' W 123°23'4754.4
2016-Jul-24 09:33N 45°34' W 122°45'606938.0
2016-Jul-24 09:32N 46°11' W 123°51'5615438.9
2016-Jul-24 09:32N 45°37' W 122°48'431754.2
2016-Jul-24 09:31N 46°12' W 123°23'20174.1
2016-Jul-24 09:24N 46°05' W 122°56'3238.3
2016-Jul-24 08:33N 45°34' W 122°45'605660.3
2016-Jul-24 08:32N 46°11' W 123°51'39868.8
2016-Jul-24 08:30N 46°05' W 122°56'294301.7
2016-Jul-24 08:29N 45°37' W 122°48'43567.5
2016-Jul-24 08:25N 46°12' W 123°23'2022.4
2016-Jul-24 07:32N 46°11' W 123°51'20718.0
2016-Jul-24 07:31N 46°12' W 123°23'20469.8
2016-Jul-24 07:28N 46°05' W 122°56'321576.7
2016-Jul-24 07:27N 45°34' W 122°45'4329.3
2016-Jul-24 07:26N 45°37' W 122°48'4 4.6
2016-Jul-24 06:33N 45°34' W 122°45'4315.7
2016-Jul-24 06:32N 45°37' W 122°48'561216.3
2016-Jul-24 06:29N 46°11' W 123°51'39227.4
2016-Jul-24 06:19N 46°05' W 122°56'3242.6
2016-Jul-24 05:33N 45°34' W 122°45'603413.9
2016-Jul-24 05:32N 46°11' W 123°51'5615438.9
2016-Jul-24 05:32N 45°37' W 122°48'29424.9
2016-Jul-24 05:28N 46°05' W 122°56'20357.5
2016-Jul-24 05:25N 46°12' W 123°23'2022.4
2016-Jul-24 04:32N 46°11' W 123°51'5612544.1
2016-Jul-24 04:32N 45°37' W 122°48'431795.0
2016-Jul-24 04:31N 46°12' W 123°23'473759.8
2016-Jul-24 04:30N 45°34' W 122°45'321070.6
2016-Jul-24 04:28N 46°05' W 122°56'3942.1
2016-Jul-24 03:32N 46°11' W 123°51'5613380.4
2016-Jul-24 03:32N 45°37' W 122°48'29245.2
2016-Jul-24 03:25N 46°05' W 122°56'321691.0
2016-Jul-24 03:24N 45°34' W 122°45'0 0.0
2016-Jul-24 02:33N 45°34' W 122°45'606325.8
2016-Jul-24 02:32N 46°11' W 123°51'5615438.9
2016-Jul-24 02:32N 45°37' W 122°48'4 4.2
2016-Jul-24 01:33N 45°34' W 122°45'606325.8
2016-Jul-24 01:32N 46°11' W 123°51'5610035.3
2016-Jul-24 01:32N 45°37' W 122°48'43346.9
2016-Jul-24 01:25N 46°12' W 123°23'20469.8
2016-Jul-24 01:22N 46°05' W 122°56'3239.2
2016-Jul-24 00:32N 45°34' W 122°45'6035848.4
2016-Jul-24 00:32N 46°11' W 123°51'39545.5
2016-Jul-24 00:28N 46°05' W 122°56'29890.0
2016-Jul-24 00:26N 45°37' W 122°48'431754.2
2016-Jul-24 00:25N 46°12' W 123°23'4754.0
2016-Jul-23 23:32N 45°34' W 122°45'6035846.1
2016-Jul-23 23:32N 46°11' W 123°51'20683.1
2016-Jul-23 23:31N 46°12' W 123°23'431677.9
2016-Jul-23 23:29N 45°37' W 122°48'291665.2
2016-Jul-23 23:28N 46°05' W 122°56'3942.1
2016-Jul-23 22:32N 46°11' W 123°51'5614336.1
2016-Jul-23 22:32N 45°37' W 122°48'431754.2
2016-Jul-23 22:31N 46°12' W 123°23'20475.9
2016-Jul-23 22:28N 46°05' W 122°56'321215.4
2016-Jul-23 22:26N 45°34' W 122°45'6066.3
2016-Jul-23 21:32N 46°11' W 123°51'5610563.5
2016-Jul-23 21:32N 45°37' W 122°48'29171.5
2016-Jul-23 21:22N 46°05' W 122°56'321228.4
2016-Jul-23 21:20N 45°34' W 122°45'471596.1
2016-Jul-23 21:19N 46°12' W 123°23'4761.0
2016-Jul-23 20:33N 45°34' W 122°45'6043018.1
2016-Jul-23 20:32N 46°11' W 123°51'5610563.5
2016-Jul-23 20:32N 45°37' W 122°48'431754.2
2016-Jul-23 20:31N 46°12' W 123°23'20475.9
2016-Jul-23 20:28N 46°05' W 122°56'3235.0
2016-Jul-23 19:33N 45°34' W 122°45'6030727.2
2016-Jul-23 19:32N 46°11' W 123°51'5613380.4
2016-Jul-23 19:32N 45°37' W 122°48'431816.1
2016-Jul-23 19:31N 46°12' W 123°23'20466.8
2016-Jul-23 19:28N 46°05' W 122°56'3235.0
2016-Jul-23 18:33N 45°34' W 122°45'6053769.2
2016-Jul-23 18:32N 46°11' W 123°51'568362.7
2016-Jul-23 18:32N 45°37' W 122°48'291720.7
2016-Jul-23 18:31N 46°05' W 122°56'202818.7
2016-Jul-23 18:31N 46°12' W 123°23'2020.1
2016-Jul-23 17:32N 46°11' W 123°51'5610563.5
2016-Jul-23 17:32N 45°37' W 122°48'291323.6
2016-Jul-23 17:31N 46°05' W 122°56'206662.3
2016-Jul-23 17:31N 46°12' W 123°23'474337.8
2016-Jul-23 17:30N 45°34' W 122°45'0 0.0
2016-Jul-23 16:32N 45°34' W 122°45'4644.4
2016-Jul-23 16:32N 45°37' W 122°48'291323.6
2016-Jul-23 16:31N 46°05' W 122°56'391804.5
2016-Jul-23 16:30N 46°11' W 123°51'2069.7
2016-Jul-23 16:13N 46°12' W 123°23'4770.3
2016-Jul-23 15:33N 45°34' W 122°45'6021509.0
2016-Jul-23 15:32N 46°11' W 123°51'5614336.1
2016-Jul-23 15:32N 45°37' W 122°48'291274.6
2016-Jul-23 15:31N 46°05' W 122°56'3233.3
2016-Jul-23 14:33N 45°34' W 122°45'6071696.8
2016-Jul-23 14:32N 46°11' W 123°51'56998.5
2016-Jul-23 14:29N 45°37' W 122°48'29167.6
2016-Jul-23 14:19N 46°05' W 122°56'207328.6
2016-Jul-23 14:19N 46°12' W 123°23'4761.1
2016-Jul-23 13:33N 45°34' W 122°45'6071696.8
2016-Jul-23 13:32N 46°11' W 123°51'20645.5
2016-Jul-23 13:31N 46°12' W 123°23'431696.3
2016-Jul-23 13:29N 45°37' W 122°48'29105.2
2016-Jul-23 13:13N 46°05' W 122°56'3958.3
2016-Jul-23 12:33N 46°11' W 123°51'567433.5
2016-Jul-23 12:32N 45°37' W 122°48'4121.6
2016-Jul-23 12:30N 45°34' W 122°45'32173.1
2016-Jul-23 12:19N 46°05' W 122°56'3950.6
2016-Jul-23 11:32N 46°11' W 123°51'569556.8
2016-Jul-23 11:32N 45°37' W 122°48'291274.6
2016-Jul-23 11:31N 46°05' W 122°56'322651.7
2016-Jul-23 11:30N 45°34' W 122°45'0 0.0
2016-Jul-23 10:33N 45°34' W 122°45'606938.0
2016-Jul-23 10:33N 46°11' W 123°51'567433.5
2016-Jul-23 10:32N 45°37' W 122°48'29129.4
2016-Jul-23 10:19N 46°05' W 122°56'3242.1
2016-Jul-23 09:33N 45°34' W 122°45'4463.7
2016-Jul-23 09:32N 45°37' W 122°48'291340.8
2016-Jul-23 09:31N 46°05' W 122°56'391827.9
2016-Jul-23 09:30N 46°11' W 123°51'2051.2
2016-Jul-23 09:07N 46°12' W 123°23'2034.3
2016-Jul-23 08:32N 46°11' W 123°51'568726.3
2016-Jul-23 08:32N 45°37' W 122°48'291358.4
2016-Jul-23 08:31N 46°05' W 122°56'32463.0
2016-Jul-23 08:27N 45°34' W 122°45'471433.7
2016-Jul-23 08:25N 46°12' W 123°23'4754.2
2016-Jul-23 07:33N 45°34' W 122°45'60107545.2
2016-Jul-23 07:33N 46°11' W 123°51'567719.4
2016-Jul-23 07:32N 45°37' W 122°48'291358.4
2016-Jul-23 07:31N 46°05' W 122°56'2067.1
2016-Jul-23 07:13N 46°12' W 123°23'2029.3
2016-Jul-23 06:33N 46°11' W 123°51'566920.4
2016-Jul-23 06:32N 45°37' W 122°48'499.6
2016-Jul-23 06:30N 45°34' W 122°45'321080.5
2016-Jul-23 06:28N 46°05' W 122°56'3920.4
2016-Jul-23 04:33N 46°11' W 123°51'391303.3
2016-Jul-23 04:31N 46°05' W 122°56'29983.2
2016-Jul-23 04:29N 45°37' W 122°48'4164.7
2016-Jul-23 04:28N 45°34' W 122°45'0 0.0
2016-Jul-23 03:33N 45°34' W 122°45'4235.2
2016-Jul-23 03:32N 45°37' W 122°48'291376.5
2016-Jul-23 03:31N 46°05' W 122°56'391827.9
2016-Jul-23 03:30N 46°11' W 123°51'6063.6
2016-Jul-23 02:33N 45°34' W 122°45'606145.4
2016-Jul-23 02:33N 46°11' W 123°51'566920.9
2016-Jul-23 02:32N 45°37' W 122°48'29236.8
2016-Jul-23 02:25N 46°05' W 122°56'3237.6
2016-Jul-23 01:33N 45°34' W 122°45'606326.2
2016-Jul-23 01:33N 46°11' W 123°51'566690.2
2016-Jul-23 01:32N 45°37' W 122°48'291340.8
2016-Jul-23 01:31N 46°05' W 122°56'20100.5
2016-Jul-23 01:19N 46°12' W 123°23'2025.5
2016-Jul-23 00:33N 46°11' W 123°51'601188.3
2016-Jul-23 00:30N 45°34' W 122°45'469.3
2016-Jul-23 00:26N 45°37' W 122°48'43191.8
2016-Jul-23 00:13N 46°12' W 123°23'20428.6
2016-Jul-23 00:10N 46°05' W 122°56'3252.3
2016-Jul-22 23:33N 45°34' W 122°45'601168.9
2016-Jul-22 23:30N 46°11' W 123°51'566920.9
2016-Jul-22 23:29N 45°37' W 122°48'29235.2
2016-Jul-22 23:22N 46°05' W 122°56'3947.7
2016-Jul-22 22:33N 46°11' W 123°51'391291.3
2016-Jul-22 22:31N 46°05' W 122°56'321691.0
2016-Jul-22 22:30N 45°34' W 122°45'4478.1
2016-Jul-22 22:29N 45°37' W 122°48'43155.6
2016-Jul-22 22:13N 46°12' W 123°23'2029.3
2016-Jul-22 21:33N 46°11' W 123°51'565734.4
2016-Jul-22 21:32N 45°37' W 122°48'431795.0
2016-Jul-22 21:31N 46°12' W 123°23'472968.3
2016-Jul-22 21:30N 45°34' W 122°45'321014.8
2016-Jul-22 21:28N 46°05' W 122°56'3942.5
2016-Jul-22 20:33N 46°11' W 123°51'566271.6
2016-Jul-22 20:32N 45°37' W 122°48'291306.8
2016-Jul-22 20:31N 46°05' W 122°56'321768.1
2016-Jul-22 20:30N 45°34' W 122°45'47560.2
2016-Jul-22 20:25N 46°12' W 123°23'2022.6
2016-Jul-22 19:33N 46°11' W 123°51'565734.4
2016-Jul-22 19:32N 45°37' W 122°48'4102.9
2016-Jul-22 19:30N 45°34' W 122°45'32247.7
2016-Jul-22 19:22N 46°05' W 122°56'20133.0
2016-Jul-22 19:13N 46°12' W 123°23'4770.5
2016-Jul-22 18:33N 45°34' W 122°45'6071692.3
2016-Jul-22 18:33N 46°11' W 123°51'566272.1
2016-Jul-22 18:32N 45°37' W 122°48'291433.9
2016-Jul-22 18:31N 46°05' W 122°56'3940.3
2016-Jul-22 17:33N 46°11' W 123°51'391291.3
2016-Jul-22 17:31N 46°05' W 122°56'321823.1
2016-Jul-22 17:30N 45°34' W 122°45'467.1
2016-Jul-22 17:26N 45°37' W 122°48'431837.7
2016-Jul-22 17:25N 46°12' W 123°23'2022.5
2016-Jul-22 16:33N 46°11' W 123°51'566690.2
2016-Jul-22 16:32N 45°37' W 122°48'291323.6
2016-Jul-22 16:31N 46°05' W 122°56'207328.6
2016-Jul-22 16:31N 46°12' W 123°23'473075.9
2016-Jul-22 16:30N 45°34' W 122°45'0 0.0
2016-Jul-22 15:33N 45°34' W 122°45'6053769.2
2016-Jul-22 15:33N 46°11' W 123°51'565575.2
2016-Jul-22 15:32N 45°37' W 122°48'431754.2
2016-Jul-22 15:31N 46°12' W 123°23'20428.6
2016-Jul-22 15:28N 46°05' W 122°56'3942.5
2016-Jul-22 14:33N 46°11' W 123°51'566272.1
2016-Jul-22 14:32N 45°37' W 122°48'4104.5
2016-Jul-22 14:30N 45°34' W 122°45'32395.6
2016-Jul-22 14:25N 46°05' W 122°56'207328.6
2016-Jul-22 14:25N 46°12' W 123°23'2022.6
2016-Jul-22 13:33N 46°11' W 123°51'565575.2
2016-Jul-22 13:32N 45°37' W 122°48'291358.4
2016-Jul-22 13:31N 46°05' W 122°56'321823.4
2016-Jul-22 13:30N 45°34' W 122°45'47554.7
2016-Jul-22 13:25N 46°12' W 123°23'4754.3
2016-Jul-22 12:33N 45°34' W 122°45'4370.5
2016-Jul-22 12:32N 45°37' W 122°48'291358.4
2016-Jul-22 12:31N 46°05' W 122°56'392069.9
2016-Jul-22 12:30N 46°11' W 123°51'6063.0
2016-Jul-22 11:33N 45°34' W 122°45'6030725.3
2016-Jul-22 11:33N 46°11' W 123°51'566082.0
2016-Jul-22 11:32N 45°37' W 122°48'291306.8
2016-Jul-22 11:31N 46°05' W 122°56'3233.6
2016-Jul-22 10:33N 45°34' W 122°45'6016544.4
2016-Jul-22 10:33N 46°11' W 123°51'391245.6
2016-Jul-22 10:31N 46°05' W 122°56'2012214.3
2016-Jul-22 10:31N 46°12' W 123°23'43563.4
2016-Jul-22 10:26N 45°37' W 122°48'5662.6
2016-Jul-22 09:33N 46°11' W 123°51'391256.7
2016-Jul-22 09:31N 46°05' W 122°56'321852.0
2016-Jul-22 09:30N 45°34' W 122°45'4336.8
2016-Jul-22 09:29N 45°37' W 122°48'43156.7
2016-Jul-22 09:13N 46°12' W 123°23'2029.4
2016-Jul-22 08:33N 46°11' W 123°51'565017.6
2016-Jul-22 08:32N 45°37' W 122°48'29237.9
2016-Jul-22 08:25N 46°05' W 122°56'20100.8
2016-Jul-22 08:13N 46°12' W 123°23'47729.3
2016-Jul-22 08:09N 45°34' W 122°45'0 0.0
2016-Jul-22 07:33N 45°34' W 122°45'32778.0
2016-Jul-22 07:31N 46°05' W 122°56'206662.3
2016-Jul-22 07:31N 46°12' W 123°23'201379.7
2016-Jul-22 07:30N 46°11' W 123°51'56496.8
2016-Jul-22 07:23N 45°37' W 122°48'4 2.3
2016-Jul-22 05:33N 45°34' W 122°45'0 0.0
2016-Jul-22 04:33N 45°34' W 122°45'606517.9
2016-Jul-22 04:33N 46°11' W 123°51'39475.5
2016-Jul-22 04:28N 46°05' W 122°56'29221.5
2016-Jul-22 04:20N 45°37' W 122°48'43191.8
2016-Jul-22 04:07N 46°12' W 123°23'4784.6
2016-Jul-22 03:33N 45°34' W 122°45'606145.1
2016-Jul-22 03:33N 46°11' W 123°51'391223.9
2016-Jul-22 03:31N 46°05' W 122°56'206662.3
2016-Jul-22 03:31N 46°12' W 123°23'43569.6
2016-Jul-22 03:26N 45°37' W 122°48'4 4.7
2016-Jul-22 02:33N 45°34' W 122°45'606326.2
2016-Jul-22 02:33N 46°11' W 123°51'565424.5
2016-Jul-22 02:32N 45°37' W 122°48'291306.8
2016-Jul-22 02:31N 46°05' W 122°56'2067.3
2016-Jul-22 02:13N 46°12' W 123°23'2029.4
2016-Jul-22 01:33N 46°11' W 123°51'565281.7
2016-Jul-22 01:32N 45°37' W 122°48'4109.8
2016-Jul-22 01:30N 45°34' W 122°45'32175.5
2016-Jul-22 01:19N 46°05' W 122°56'20100.7
2016-Jul-22 01:07N 46°12' W 123°23'4783.5
2016-Jul-22 00:33N 45°34' W 122°45'4345.1
2016-Jul-22 00:32N 45°37' W 122°48'561403.5
2016-Jul-22 00:30N 46°11' W 123°51'20228.5
2016-Jul-22 00:25N 46°12' W 123°23'2022.6
2016-Jul-21 23:33N 46°11' W 123°51'564778.7
2016-Jul-21 23:32N 45°37' W 122°48'431837.7
2016-Jul-21 23:31N 46°12' W 123°23'473677.7
2016-Jul-21 23:30N 45°34' W 122°45'32911.5
2016-Jul-21 23:28N 46°05' W 122°56'3942.7
2016-Jul-21 22:33N 46°11' W 123°51'60402.8
2016-Jul-21 22:24N 45°34' W 122°45'4309.1
2016-Jul-21 22:23N 45°37' W 122°48'29130.2
2016-Jul-21 22:10N 46°05' W 122°56'3963.3
2016-Jul-21 21:33N 46°11' W 123°51'391203.0
2016-Jul-21 21:31N 46°05' W 122°56'29974.0
2016-Jul-21 21:29N 45°37' W 122°48'4113.3
2016-Jul-21 21:27N 45°34' W 122°45'471272.1
2016-Jul-21 21:25N 46°12' W 123°23'4754.5
2016-Jul-21 20:33N 45°34' W 122°45'32933.6
2016-Jul-21 20:31N 46°05' W 122°56'392385.6
2016-Jul-21 20:30N 46°11' W 123°51'56904.1
2016-Jul-21 20:26N 45°37' W 122°48'43342.3
2016-Jul-21 20:19N 46°12' W 123°23'2025.6
2016-Jul-21 19:33N 46°11' W 123°51'20545.5
2016-Jul-21 19:31N 46°12' W 123°23'431608.0
2016-Jul-21 19:29N 45°37' W 122°48'29401.7
2016-Jul-21 19:25N 46°05' W 122°56'32281.8
2016-Jul-21 19:18N 45°34' W 122°45'6079.5
2016-Jul-21 18:33N 46°11' W 123°51'20529.1
2016-Jul-21 18:31N 46°12' W 123°23'474028.4
2016-Jul-21 18:30N 45°34' W 122°45'4302.8
2016-Jul-21 18:29N 45°37' W 122°48'29404.9
2016-Jul-21 18:25N 46°05' W 122°56'3237.5
2016-Jul-21 17:33N 45°34' W 122°45'6035846.1
2016-Jul-21 17:33N 46°11' W 123°51'565017.6
2016-Jul-21 17:32N 45°37' W 122°48'431734.5
2016-Jul-21 17:31N 46°12' W 123°23'20428.6
2016-Jul-21 17:28N 46°05' W 122°56'3235.4
2016-Jul-21 16:33N 45°34' W 122°45'6071692.3
2016-Jul-21 16:33N 46°11' W 123°51'391117.1
2016-Jul-21 16:31N 46°05' W 122°56'209160.7
2016-Jul-21 16:31N 46°12' W 123°23'43155.6
2016-Jul-21 16:14N 45°37' W 122°48'5681.0
2016-Jul-21 15:33N 46°11' W 123°51'39464.5
2016-Jul-21 15:28N 46°05' W 122°56'322482.9
2016-Jul-21 15:27N 45°34' W 122°45'4280.0
2016-Jul-21 15:26N 45°37' W 122°48'431795.0
2016-Jul-21 15:25N 46°12' W 123°23'4754.5
2016-Jul-21 14:33N 45°34' W 122°45'6043015.4
2016-Jul-21 14:33N 46°11' W 123°51'564270.3
2016-Jul-21 14:32N 45°37' W 122°48'431754.4
2016-Jul-21 14:31N 46°12' W 123°23'20438.9
2016-Jul-21 14:28N 46°05' W 122°56'3942.7
2016-Jul-21 13:33N 46°11' W 123°51'564460.1
2016-Jul-21 13:32N 45°37' W 122°48'291358.4
2016-Jul-21 13:31N 46°05' W 122°56'322333.9
2016-Jul-21 13:30N 45°34' W 122°45'47530.4
2016-Jul-21 13:25N 46°12' W 123°23'2022.6
2016-Jul-21 12:33N 46°11' W 123°51'564181.4
2016-Jul-21 12:32N 45°37' W 122°48'291358.4
2016-Jul-21 12:31N 46°05' W 122°56'206107.1
2016-Jul-21 12:31N 46°12' W 123°23'47776.0
2016-Jul-21 12:27N 45°34' W 122°45'0 0.0
2016-Jul-21 11:33N 45°34' W 122°45'6053769.3
2016-Jul-21 11:33N 46°11' W 123°51'564013.8
2016-Jul-21 11:32N 45°37' W 122°48'29129.7
2016-Jul-21 11:19N 46°05' W 122°56'205637.4
2016-Jul-21 11:19N 46°12' W 123°23'2025.7
2016-Jul-21 10:33N 46°11' W 123°51'563859.7
2016-Jul-21 10:32N 45°37' W 122°48'29401.7
2016-Jul-21 10:28N 46°05' W 122°56'20135.0
2016-Jul-21 10:19N 46°12' W 123°23'473759.4
2016-Jul-21 10:18N 45°34' W 122°45'0 0.0
2016-Jul-21 09:33N 45°34' W 122°45'6043018.1
2016-Jul-21 09:33N 46°11' W 123°51'564096.0
2016-Jul-21 09:32N 45°37' W 122°48'291358.4
2016-Jul-21 09:31N 46°05' W 122°56'20100.3
2016-Jul-21 09:19N 46°12' W 123°23'2025.6
2016-Jul-21 08:31N 46°05' W 122°56'322288.2
2016-Jul-21 08:30N 45°34' W 122°45'6053772.6
2016-Jul-21 08:30N 46°11' W 123°51'564014.1
2016-Jul-21 08:29N 45°37' W 122°48'43114.5
2016-Jul-21 08:07N 46°12' W 123°23'4374.4
2016-Jul-21 07:32N 45°37' W 122°48'431837.7
2016-Jul-21 07:31N 46°12' W 123°23'474338.2
2016-Jul-21 07:30N 45°34' W 122°45'6053772.6
2016-Jul-21 07:30N 46°11' W 123°51'39457.0
2016-Jul-21 07:25N 46°05' W 122°56'3237.9
2016-Jul-21 06:34N 45°34' W 122°45'606145.1
2016-Jul-21 06:33N 46°11' W 123°51'564270.1
2016-Jul-21 06:32N 45°37' W 122°48'29234.1
2016-Jul-21 06:25N 46°05' W 122°56'20100.8
2016-Jul-21 06:13N 46°12' W 123°23'4772.0
2016-Jul-21 05:34N 45°34' W 122°45'606721.1
2016-Jul-21 05:33N 46°11' W 123°51'563786.9
2016-Jul-21 05:32N 45°37' W 122°48'291376.5
2016-Jul-21 05:31N 46°05' W 122°56'3940.5
2016-Jul-21 04:33N 46°11' W 123°51'391099.6
2016-Jul-21 04:31N 46°05' W 122°56'328975.1
2016-Jul-21 04:31N 45°34' W 122°45'4162.9
2016-Jul-21 04:29N 45°37' W 122°48'5659.7
2016-Jul-21 03:33N 46°11' W 123°51'563716.8
2016-Jul-21 03:32N 45°37' W 122°48'291306.8
2016-Jul-21 03:31N 46°05' W 122°56'209160.7
2016-Jul-21 03:31N 46°12' W 123°23'47427.2
2016-Jul-21 03:24N 45°34' W 122°45'6070.2
2016-Jul-21 02:33N 46°11' W 123°51'563649.2
2016-Jul-21 02:32N 45°37' W 122°48'291358.4
2016-Jul-21 02:31N 46°05' W 122°56'322430.8
2016-Jul-21 02:30N 45°34' W 122°45'6062.8
2016-Jul-21 01:33N 46°11' W 123°51'563786.9
2016-Jul-21 01:32N 45°37' W 122°48'4122.6
2016-Jul-21 01:30N 45°34' W 122°45'32851.8
2016-Jul-21 01:28N 46°05' W 122°56'2057.8
2016-Jul-21 01:07N 46°12' W 123°23'4777.0
2016-Jul-21 00:30N 45°34' W 122°45'6053769.2
2016-Jul-21 00:30N 46°11' W 123°51'563584.0
2016-Jul-21 00:29N 45°37' W 122°48'29167.3
2016-Jul-21 00:19N 46°05' W 122°56'3242.6
2016-Jul-20 23:33N 45°34' W 122°45'6030725.3
2016-Jul-20 23:33N 46°11' W 123°51'56861.4
2016-Jul-20 23:29N 45°37' W 122°48'29401.7
2016-Jul-20 23:25N 46°05' W 122°56'3945.3
2016-Jul-20 22:33N 46°11' W 123°51'601215.1
2016-Jul-20 22:30N 45°34' W 122°45'461.5
2016-Jul-20 22:26N 45°37' W 122°48'291414.3
2016-Jul-20 22:25N 46°05' W 122°56'20100.1
2016-Jul-20 22:13N 46°12' W 123°23'2029.2
2016-Jul-20 21:31N 46°05' W 122°56'393273.3
2016-Jul-20 21:30N 46°11' W 123°51'60215090.5
2016-Jul-20 21:30N 45°34' W 122°45'4251.5
2016-Jul-20 21:29N 45°37' W 122°48'43156.2
2016-Jul-20 21:13N 46°12' W 123°23'4771.4
2016-Jul-20 20:33N 45°34' W 122°45'6071696.8
2016-Jul-20 20:33N 46°11' W 123°51'391027.4
2016-Jul-20 20:31N 46°05' W 122°56'207328.6
2016-Jul-20 20:31N 46°12' W 123°23'431696.3
2016-Jul-20 20:29N 45°37' W 122°48'4 4.4
2016-Jul-20 19:33N 45°34' W 122°45'6035848.4
2016-Jul-20 19:33N 46°11' W 123°51'20499.0
2016-Jul-20 19:31N 46°12' W 123°23'20426.1
2016-Jul-20 19:28N 46°05' W 122°56'291022.2
2016-Jul-20 19:26N 45°37' W 122°48'4 4.7
2016-Jul-20 18:33N 45°34' W 122°45'6053769.3
2016-Jul-20 18:33N 46°11' W 123°51'563520.9
2016-Jul-20 18:32N 45°37' W 122°48'29236.8
2016-Jul-20 18:25N 46°05' W 122°56'20100.4
2016-Jul-20 18:13N 46°12' W 123°23'2029.6
2016-Jul-20 17:33N 46°11' W 123°51'391058.3
2016-Jul-20 17:31N 46°05' W 122°56'206662.3
2016-Jul-20 17:31N 46°12' W 123°23'475639.1
2016-Jul-20 17:30N 45°34' W 122°45'461.2
2016-Jul-20 17:26N 45°37' W 122°48'5663.1
2016-Jul-20 16:33N 46°11' W 123°51'20495.5
2016-Jul-20 16:31N 46°12' W 123°23'47798.1
2016-Jul-20 16:27N 45°34' W 122°45'32839.5
2016-Jul-20 16:25N 46°05' W 122°56'291012.2
2016-Jul-20 16:23N 45°37' W 122°48'4 4.9
2016-Jul-20 15:33N 45°34' W 122°45'6043018.1
2016-Jul-20 15:33N 46°11' W 123°51'391042.6
2016-Jul-20 15:31N 46°05' W 122°56'29362.2
2016-Jul-20 15:26N 45°37' W 122°48'43347.7
2016-Jul-20 15:19N 46°12' W 123°23'4762.0
2016-Jul-20 14:33N 45°34' W 122°45'6043018.1
2016-Jul-20 14:33N 46°11' W 123°51'563237.2
2016-Jul-20 14:32N 45°37' W 122°48'291376.5
2016-Jul-20 14:31N 46°05' W 122°56'20198.1
2016-Jul-20 14:25N 46°12' W 123°23'4754.8
2016-Jul-20 13:33N 45°34' W 122°45'6030727.2
2016-Jul-20 13:33N 46°11' W 123°51'563521.2
2016-Jul-20 13:32N 45°37' W 122°48'431754.2
2016-Jul-20 13:31N 46°12' W 123°23'20210.0
2016-Jul-20 13:25N 46°05' W 122°56'3945.3
2016-Jul-20 12:33N 46°11' W 123°51'391042.6
2016-Jul-20 12:31N 46°05' W 122°56'29363.5
2016-Jul-20 12:26N 45°37' W 122°48'431.1
2016-Jul-20 12:18N 45°34' W 122°45'47332.4
2016-Jul-20 12:10N 46°12' W 123°23'2032.1
2016-Jul-20 11:33N 46°11' W 123°51'563344.9
2016-Jul-20 11:32N 45°37' W 122°48'431795.0
2016-Jul-20 11:31N 46°12' W 123°23'20426.1
2016-Jul-20 11:28N 46°05' W 122°56'323241.6
2016-Jul-20 11:27N 45°34' W 122°45'0 0.0
2016-Jul-20 10:33N 45°34' W 122°45'6071696.8
2016-Jul-20 10:33N 46°11' W 123°51'563237.2
2016-Jul-20 10:32N 45°37' W 122°48'291340.8
2016-Jul-20 10:31N 46°05' W 122°56'20379.7
2016-Jul-20 10:28N 46°12' W 123°23'0 0.0
2016-Jul-20 09:34N 46°12' W 123°23'202426.3
2016-Jul-20 09:33N 46°11' W 123°51'563345.1
2016-Jul-20 09:32N 45°37' W 122°48'4128.9
2016-Jul-20 09:30N 45°34' W 122°45'32361.2
2016-Jul-20 09:25N 46°05' W 122°56'3237.7
2016-Jul-20 08:33N 45°34' W 122°45'60107538.4
2016-Jul-20 08:33N 46°11' W 123°51'563087.8
2016-Jul-20 08:32N 45°37' W 122°48'291358.4
2016-Jul-20 08:31N 46°05' W 122°56'20100.5
2016-Jul-20 08:19N 46°12' W 123°23'4762.2
2016-Jul-20 07:33N 45°34' W 122°45'6021509.0
2016-Jul-20 07:33N 46°11' W 123°51'20466.0
2016-Jul-20 07:31N 46°12' W 123°23'431696.5
2016-Jul-20 07:29N 45°37' W 122°48'291454.1
2016-Jul-20 07:28N 46°05' W 122°56'3235.5
2016-Jul-20 06:33N 45°34' W 122°45'6026886.3
2016-Jul-20 06:33N 46°11' W 123°51'391058.3
2016-Jul-20 06:31N 46°05' W 122°56'207329.3
2016-Jul-20 06:31N 46°12' W 123°23'43567.6
2016-Jul-20 06:26N 45°37' W 122°48'5663.2
2016-Jul-20 05:33N 46°11' W 123°51'562867.2
2016-Jul-20 05:32N 45°37' W 122°48'431905.8
2016-Jul-20 05:31N 46°12' W 123°23'20428.6
2016-Jul-20 05:28N 46°05' W 122°56'3942.9
2016-Jul-20 04:33N 46°11' W 123°51'563290.3
2016-Jul-20 04:32N 45°37' W 122°48'291290.5
2016-Jul-20 04:31N 46°05' W 122°56'32550.4
2016-Jul-20 04:27N 45°34' W 122°45'471120.4
2016-Jul-20 04:25N 46°12' W 123°23'2022.8
2016-Jul-20 03:33N 46°11' W 123°51'562826.8
2016-Jul-20 03:32N 45°37' W 122°48'291474.9
2016-Jul-20 03:31N 46°05' W 122°56'32525.6
2016-Jul-20 03:27N 45°34' W 122°45'47329.8
2016-Jul-20 03:19N 46°12' W 123°23'4762.2
2016-Jul-20 02:33N 45°34' W 122°45'6021509.0
2016-Jul-20 02:33N 46°11' W 123°51'563345.1
2016-Jul-20 02:32N 45°37' W 122°48'431696.3
2016-Jul-20 02:31N 46°12' W 123°23'20208.2
2016-Jul-20 02:25N 46°05' W 122°56'3945.5
2016-Jul-20 01:33N 46°11' W 123°51'601250.5
2016-Jul-20 01:30N 45°34' W 122°45'4185.5
2016-Jul-20 01:29N 45°37' W 122°48'29409.7
2016-Jul-20 01:25N 46°05' W 122°56'20101.1
2016-Jul-20 01:13N 46°12' W 123°23'2029.7
2016-Jul-20 00:33N 46°11' W 123°51'39932.1
2016-Jul-20 00:31N 46°05' W 122°56'206107.1
2016-Jul-20 00:31N 46°12' W 123°23'431734.5
2016-Jul-20 00:29N 45°37' W 122°48'4174.4
2016-Jul-20 00:28N 45°34' W 122°45'0 0.0
2016-Jul-19 23:33N 45°34' W 122°45'60107538.4
2016-Jul-19 23:33N 46°11' W 123°51'562908.8
2016-Jul-19 23:32N 45°37' W 122°48'43346.1
2016-Jul-19 23:25N 46°12' W 123°23'20208.8
2016-Jul-19 23:19N 46°05' W 122°56'3242.7
2016-Jul-19 22:33N 45°34' W 122°45'6053769.2
2016-Jul-19 22:33N 46°11' W 123°51'562951.6
2016-Jul-19 22:32N 45°37' W 122°48'431774.3
2016-Jul-19 22:31N 46°12' W 123°23'20211.2
2016-Jul-19 22:25N 46°05' W 122°56'3945.5
2016-Jul-19 21:33N 46°11' W 123°51'39964.1
2016-Jul-19 21:31N 46°05' W 122°56'324024.0
2016-Jul-19 21:30N 45°34' W 122°45'4197.8
2016-Jul-19 21:29N 45°37' W 122°48'5659.9
2016-Jul-19 20:33N 46°11' W 123°51'20451.1
2016-Jul-19 20:31N 46°12' W 123°23'431678.1
2016-Jul-19 20:29N 45°37' W 122°48'4137.4
2016-Jul-19 20:27N 45°34' W 122°45'32778.0
2016-Jul-19 20:25N 46°05' W 122°56'3237.7
2016-Jul-19 19:33N 45°34' W 122°45'6035843.9
2016-Jul-19 19:33N 46°11' W 123°51'563087.6
2016-Jul-19 19:32N 45°37' W 122°48'291395.1
2016-Jul-19 19:31N 46°05' W 122°56'205637.4
2016-Jul-19 19:31N 46°12' W 123°23'2020.4
2016-Jul-19 18:33N 46°11' W 123°51'39951.0
2016-Jul-19 18:31N 46°05' W 122°56'2014657.1
2016-Jul-19 18:31N 46°12' W 123°23'477049.6
2016-Jul-19 18:30N 45°34' W 122°45'434.3
2016-Jul-19 18:23N 45°37' W 122°48'5667.1
2016-Jul-19 17:33N 46°11' W 123°51'562749.4
2016-Jul-19 17:32N 45°37' W 122°48'431816.1
2016-Jul-19 17:31N 46°12' W 123°23'478904.8
2016-Jul-19 17:30N 45°34' W 122°45'32351.5
2016-Jul-19 17:25N 46°05' W 122°56'3945.5
2016-Jul-19 16:33N 46°11' W 123°51'562951.6
2016-Jul-19 16:32N 45°37' W 122°48'4200.5
2016-Jul-19 16:31N 45°34' W 122°45'3223339.5
2016-Jul-19 16:31N 46°05' W 122°56'2014657.1
2016-Jul-19 16:31N 46°12' W 123°23'4749.2
2016-Jul-19 15:33N 45°34' W 122°45'6026886.3
2016-Jul-19 15:33N 46°11' W 123°51'562826.8
2016-Jul-19 15:32N 45°37' W 122°48'291323.6
2016-Jul-19 15:31N 46°05' W 122°56'2010469.4
2016-Jul-19 15:31N 46°12' W 123°23'2020.4
2016-Jul-19 14:33N 46°11' W 123°51'39944.6
2016-Jul-19 14:31N 46°05' W 122°56'207328.6
2016-Jul-19 14:31N 46°12' W 123°23'47854.4
2016-Jul-19 14:27N 45°34' W 122°45'4197.6
2016-Jul-19 14:26N 45°37' W 122°48'4 4.7
2016-Jul-19 13:33N 45°34' W 122°45'6053772.6
2016-Jul-19 13:33N 46°11' W 123°51'39429.1
2016-Jul-19 13:28N 46°05' W 122°56'291022.2
2016-Jul-19 13:26N 45°37' W 122°48'431754.2
2016-Jul-19 13:25N 46°12' W 123°23'4755.0
2016-Jul-19 12:33N 45°34' W 122°45'6071692.3
2016-Jul-19 12:33N 46°11' W 123°51'562675.9
2016-Jul-19 12:32N 45°37' W 122°48'43345.3
2016-Jul-19 12:25N 46°12' W 123°23'20426.1
2016-Jul-19 12:22N 46°05' W 122°56'2934.6
2016-Jul-19 11:32N 45°37' W 122°48'291323.6
2016-Jul-19 11:31N 46°05' W 122°56'394853.5
2016-Jul-19 11:30N 46°11' W 123°51'601229.1
2016-Jul-19 11:27N 45°34' W 122°45'471044.4
2016-Jul-19 11:25N 46°12' W 123°23'4754.9
2016-Jul-19 10:33N 45°34' W 122°45'60107538.4
2016-Jul-19 10:33N 46°11' W 123°51'562749.4
2016-Jul-19 10:32N 45°37' W 122°48'29166.2
2016-Jul-19 10:22N 46°05' W 122°56'3948.5
2016-Jul-19 09:33N 46°11' W 123°51'601463.1
2016-Jul-19 09:31N 45°34' W 122°45'3216668.0
2016-Jul-19 09:31N 46°05' W 122°56'29367.4
2016-Jul-19 09:26N 45°37' W 122°48'431734.5
2016-Jul-19 09:25N 46°12' W 123°23'2022.9
2016-Jul-19 08:33N 46°11' W 123°51'562573.1
2016-Jul-19 08:32N 45°37' W 122°48'291395.1
2016-Jul-19 08:31N 46°05' W 122°56'325072.9
2016-Jul-19 08:30N 45°34' W 122°45'47239.3
2016-Jul-19 08:19N 46°12' W 123°23'4762.3
2016-Jul-19 07:33N 45°34' W 122°45'60215090.5
2016-Jul-19 07:33N 46°11' W 123°51'562749.4
2016-Jul-19 07:32N 45°37' W 122°48'29389.6
2016-Jul-19 07:28N 46°05' W 122°56'20385.7
2016-Jul-19 07:25N 46°12' W 123°23'4716.5
2016-Jul-19 04:33N 45°34' W 122°45'6035846.1
2016-Jul-19 04:33N 46°11' W 123°51'39914.0
2016-Jul-19 04:31N 46°05' W 122°56'29983.2
2016-Jul-19 04:29N 45°37' W 122°48'43586.9
2016-Jul-19 04:25N 46°12' W 123°23'2022.9
2016-Jul-19 03:33N 46°11' W 123°51'39890.8
2016-Jul-19 03:31N 46°05' W 122°56'208142.9
2016-Jul-19 03:31N 46°12' W 123°23'431624.9
2016-Jul-19 03:29N 45°37' W 122°48'4156.4
2016-Jul-19 03:28N 45°34' W 122°45'6066.3
2016-Jul-19 02:33N 46°11' W 123°51'562418.1
2016-Jul-19 02:32N 45°37' W 122°48'291376.5
2016-Jul-19 02:31N 46°05' W 122°56'325833.8
2016-Jul-19 02:31N 45°34' W 122°45'47240.0
2016-Jul-19 02:19N 46°12' W 123°23'2025.9
2016-Jul-19 01:33N 46°11' W 123°51'39919.9
2016-Jul-19 01:31N 46°05' W 122°56'205234.7
2016-Jul-19 01:31N 46°12' W 123°23'47904.7
2016-Jul-19 01:28N 45°34' W 122°45'484.2
2016-Jul-19 01:25N 45°37' W 122°48'4 4.8
2016-Jul-19 00:33N 45°34' W 122°45'60107545.2
2016-Jul-19 00:33N 46°11' W 123°51'39896.5
2016-Jul-19 00:31N 46°05' W 122°56'29532.2
2016-Jul-19 00:28N 45°37' W 122°48'43172.5
2016-Jul-19 00:13N 46°12' W 123°23'2029.9
2016-Jul-18 23:33N 46°11' W 123°51'39896.5
2016-Jul-18 23:31N 46°05' W 122°56'297941.6
2016-Jul-18 23:31N 45°37' W 122°48'42117.2
2016-Jul-18 23:31N 45°34' W 122°45'47158.3
2016-Jul-18 23:13N 46°12' W 123°23'2029.9
2016-Jul-18 22:33N 46°11' W 123°51'39885.2
2016-Jul-18 22:31N 46°05' W 122°56'297374.4
2016-Jul-18 22:31N 45°37' W 122°48'43432.5
2016-Jul-18 22:25N 46°12' W 123°23'2022.9
2016-Jul-18 21:34N 46°11' W 123°51'39863.5
2016-Jul-18 21:31N 46°05' W 122°56'299385.5
2016-Jul-18 21:31N 45°37' W 122°48'43431.2
2016-Jul-18 21:25N 46°12' W 123°23'2022.9
2016-Jul-18 20:33N 46°11' W 123°51'39272.8
2016-Jul-18 20:25N 46°05' W 122°56'29277.5
2016-Jul-18 20:19N 45°37' W 122°48'5674.1
2016-Jul-18 19:34N 46°11' W 123°51'39879.7
2016-Jul-18 19:31N 46°05' W 122°56'29534.9
2016-Jul-18 19:28N 45°37' W 122°48'5661.8
2016-Jul-18 18:33N 46°11' W 123°51'39411.5
2016-Jul-18 18:28N 46°05' W 122°56'29187.7
2016-Jul-18 18:19N 45°37' W 122°48'5674.2
2016-Jul-18 17:34N 46°11' W 123°51'39874.2
2016-Jul-18 17:31N 46°05' W 122°56'207328.6
2016-Jul-18 17:31N 46°12' W 123°23'4351455.7
2016-Jul-18 17:31N 45°37' W 122°48'5658.5
2016-Jul-18 16:33N 46°11' W 123°51'39885.2
2016-Jul-18 16:31N 46°05' W 122°56'29532.2
2016-Jul-18 16:28N 45°37' W 122°48'43123.1
2016-Jul-18 16:07N 46°12' W 123°23'2035.3
2016-Jul-18 15:33N 46°11' W 123°51'561173.7
2016-Jul-18 15:31N 45°37' W 122°48'29296.7
2016-Jul-18 15:25N 46°05' W 122°56'2067.2
2016-Jul-18 15:07N 46°12' W 123°23'2035.4
2016-Jul-18 14:34N 46°11' W 123°51'56568.6
2016-Jul-18 14:28N 45°37' W 122°48'29618.2
2016-Jul-18 14:25N 46°05' W 122°56'208142.9
2016-Jul-18 14:25N 46°12' W 123°23'2022.7
2016-Jul-18 13:31N 46°05' W 122°56'398797.0
2016-Jul-18 13:31N 46°11' W 123°51'56373.8
2016-Jul-18 13:22N 45°37' W 122°48'2933.9
2016-Jul-18 12:31N 46°05' W 122°56'398279.3
2016-Jul-18 12:31N 46°11' W 123°51'561140.3
2016-Jul-18 12:28N 45°37' W 122°48'43882.1
2016-Jul-18 12:25N 46°12' W 123°23'2022.7
2016-Jul-18 11:31N 46°05' W 122°56'299385.5
2016-Jul-18 11:31N 45°37' W 122°48'56100352.8
2016-Jul-18 11:31N 46°11' W 123°51'5655.8
2016-Jul-18 10:31N 45°37' W 122°48'5640141.1
2016-Jul-18 10:31N 46°11' W 123°51'39199.6
2016-Jul-18 10:19N 46°05' W 122°56'2935.7
2016-Jul-18 09:31N 45°37' W 122°48'5650176.4
2016-Jul-18 09:31N 46°11' W 123°51'39267.6
2016-Jul-18 09:22N 46°05' W 122°56'206662.3
2016-Jul-18 09:22N 46°12' W 123°23'2024.0
2016-Jul-18 08:31N 46°05' W 122°56'2012215.5
2016-Jul-18 08:31N 46°12' W 123°23'4351461.7
2016-Jul-18 08:31N 45°37' W 122°48'56100352.8
2016-Jul-18 08:31N 46°11' W 123°51'5655.8
2016-Jul-18 07:31N 45°37' W 122°48'56100346.2
2016-Jul-18 07:31N 46°11' W 123°51'39405.6
2016-Jul-18 07:25N 46°05' W 122°56'20379.8
2016-Jul-18 07:22N 46°12' W 123°23'2023.0
2016-Jul-18 06:31N 46°11' W 123°51'561115.0
2016-Jul-18 06:28N 45°37' W 122°48'29629.5
2016-Jul-18 06:25N 46°05' W 122°56'205234.7
2016-Jul-18 06:25N 46°12' W 123°23'2022.7
2016-Jul-18 05:31N 46°05' W 122°56'3911729.1
2016-Jul-18 05:31N 46°11' W 123°51'561108.8
2016-Jul-18 05:28N 45°37' W 122°48'2930.3
2016-Jul-18 04:31N 46°05' W 122°56'2018321.4
2016-Jul-18 04:31N 46°12' W 123°23'4330873.4
2016-Jul-18 04:31N 45°37' W 122°48'56100352.8
2016-Jul-18 04:31N 46°11' W 123°51'5655.8
2016-Jul-18 03:31N 45°37' W 122°48'5666901.9
2016-Jul-18 03:31N 46°11' W 123°51'39847.9
2016-Jul-18 03:28N 46°05' W 122°56'2930.1
2016-Jul-18 02:31N 45°37' W 122°48'5666901.9
2016-Jul-18 02:31N 46°11' W 123°51'20196.0
2016-Jul-18 02:25N 46°12' W 123°23'20208.8
2016-Jul-18 02:19N 46°05' W 122°56'0 0.0
2016-Jul-18 01:31N 46°05' W 122°56'298603.4
2016-Jul-18 01:31N 45°37' W 122°48'56200705.6
2016-Jul-18 01:31N 46°11' W 123°51'  
Track history (hours):
 
Tides and Currents Weather Stations Pressure Air Temp Water Temp Dewpoint Dewpoint Depression Visibility Wind Speed Wind Dir Waves Ship Positions

Zarling

Owner: Clean Rivers Co-op, Portland, OR. More information available from US FCC via Universal Licensing System.

Last reported at 2016-Jul-28 00:33 UTC. Time now 2016-Jul-28 01:02 UTC.
Position N 45°34' W 122°45'.

Length 12 m.

Type: Pollution control. MMSI: 3699126.

Date/timePositionNaut miles runAvg speedWind from/ knotsBaromVisibWave heightAir tempDewpointWater temp
2016-Jul-28 00:33N 45°34' W 122°45'322991.7
2016-Jul-28 00:32N 46°05' W 122°56'29614.5
2016-Jul-28 00:29N 45°37' W 122°48'566082.0
2016-Jul-28 00:29N 46°11' W 123°51'2021.0
2016-Jul-27 23:33N 46°12' W 123°23'473759.4
2016-Jul-27 23:32N 45°34' W 122°45'3211667.6
2016-Jul-27 23:32N 46°05' W 122°56'396397.8
2016-Jul-27 23:32N 46°11' W 123°51'561338.0
2016-Jul-27 23:29N 45°37' W 122°48'4345.8
2016-Jul-27 22:33N 46°12' W 123°23'433430.4
2016-Jul-27 22:32N 45°37' W 122°48'566474.4
2016-Jul-27 22:32N 46°11' W 123°51'601463.1
2016-Jul-27 22:29N 45°34' W 122°45'32315.3
2016-Jul-27 22:23N 46°05' W 122°56'3238.3
2016-Jul-27 21:32N 45°34' W 122°45'327293.6
2016-Jul-27 21:32N 46°05' W 122°56'396119.6
2016-Jul-27 21:32N 46°11' W 123°51'561347.0
2016-Jul-27 21:29N 45°37' W 122°48'43127.3
2016-Jul-27 21:09N 46°12' W 123°23'2031.5
2016-Jul-27 20:32N 46°11' W 123°51'601536.4
2016-Jul-27 20:29N 45°34' W 122°45'41854.7
2016-Jul-27 20:29N 45°37' W 122°48'29277.5
2016-Jul-27 20:23N 46°05' W 122°56'2024.4
2016-Jul-27 19:33N 46°12' W 123°23'474229.8
2016-Jul-27 19:32N 45°34' W 122°45'42119.6
2016-Jul-27 19:32N 45°37' W 122°48'566920.9
2016-Jul-27 19:32N 46°11' W 123°51'39896.5
2016-Jul-27 19:29N 46°05' W 122°56'3234.2
2016-Jul-27 18:32N 45°34' W 122°45'43705.0
2016-Jul-27 18:32N 45°37' W 122°48'299385.5
2016-Jul-27 18:32N 46°05' W 122°56'396702.5
2016-Jul-27 18:32N 46°11' W 123°51'2020.0
2016-Jul-27 17:33N 46°12' W 123°23'201332.6
2016-Jul-27 17:32N 46°05' W 122°56'396119.6
2016-Jul-27 17:32N 46°11' W 123°51'60659.7
2016-Jul-27 17:26N 45°34' W 122°45'42964.0
2016-Jul-27 17:26N 45°37' W 122°48'2528.9
2016-Jul-27 16:33N 46°02' W 122°53'232913.7
2016-Jul-27 16:33N 46°12' W 123°23'20868.7
2016-Jul-27 16:32N 46°11' W 123°51'601493.6
2016-Jul-27 16:29N 45°34' W 122°45'42964.0
2016-Jul-27 16:29N 45°37' W 122°48'2728.9
2016-Jul-27 15:33N 46°04' W 122°54'312076.5
2016-Jul-27 15:32N 45°34' W 122°45'41483.7
2016-Jul-27 15:32N 45°37' W 122°48'567433.5
2016-Jul-27 15:32N 46°11' W 123°51'4141.9
2016-Jul-27 14:33N 46°04' W 122°54'411516.1
2016-Jul-27 14:32N 46°11' W 123°51'601504.1
2016-Jul-27 14:29N 45°34' W 122°45'42119.6
2016-Jul-27 14:29N 45°37' W 122°48'43180.8
2016-Jul-27 14:15N 46°12' W 123°23'2536.4
2016-Jul-27 13:33N 46°01' W 122°51'252742.2
2016-Jul-27 13:33N 46°12' W 123°23'20913.8
2016-Jul-27 13:32N 46°11' W 123°51'56604.5
2016-Jul-27 13:26N 45°37' W 122°48'487.3
2016-Jul-27 13:23N 45°34' W 122°45'4756.0
2016-Jul-27 12:33N 46°12' W 123°23'433589.9
2016-Jul-27 12:32N 45°37' W 122°48'566920.9
2016-Jul-27 12:32N 46°11' W 123°51'601483.4
2016-Jul-27 12:29N 45°34' W 122°45'32752.9
2016-Jul-27 12:27N 46°05' W 122°56'3942.7
2016-Jul-27 11:32N 46°11' W 123°51'391135.1
2016-Jul-27 11:30N 46°05' W 122°56'20449.6
2016-Jul-27 11:27N 46°12' W 123°23'47424.0
2016-Jul-27 11:20N 45°34' W 122°45'478.9
2016-Jul-27 11:17N 45°37' W 122°48'2936.2
2016-Jul-27 10:30N 46°05' W 122°56'392559.1
2016-Jul-27 10:29N 46°11' W 123°51'601514.6
2016-Jul-27 10:26N 45°34' W 122°45'476.8
2016-Jul-27 10:23N 45°37' W 122°48'5665.0
2016-Jul-27 09:32N 46°11' W 123°51'601514.6
2016-Jul-27 09:29N 45°34' W 122°45'41347.3
2016-Jul-27 09:29N 45°37' W 122°48'43490.1
2016-Jul-27 09:24N 46°12' W 123°23'205234.7
2016-Jul-27 09:24N 46°05' W 122°56'3945.2
2016-Jul-27 08:32N 46°11' W 123°51'601483.3
2016-Jul-27 08:29N 45°34' W 122°45'41646.7
2016-Jul-27 08:29N 45°37' W 122°48'431143.5
2016-Jul-27 08:27N 46°12' W 123°23'20379.7
2016-Jul-27 08:24N 46°05' W 122°56'3237.9
2016-Jul-27 07:32N 45°34' W 122°45'41852.5
2016-Jul-27 07:32N 45°37' W 122°48'566474.4
2016-Jul-27 07:32N 46°11' W 123°51'391163.2
2016-Jul-27 07:30N 46°05' W 122°56'3940.5
2016-Jul-27 06:32N 46°11' W 123°51'391135.1
2016-Jul-27 06:30N 46°05' W 122°56'293226.3
2016-Jul-27 06:29N 45°37' W 122°48'487.8
2016-Jul-27 06:26N 45°34' W 122°45'0 0.0
2016-Jul-27 05:32N 45°34' W 122°45'41235.0
2016-Jul-27 05:32N 45°37' W 122°48'56998.5
2016-Jul-27 05:29N 46°11' W 123°51'39463.0
2016-Jul-27 05:24N 46°05' W 122°56'3237.9
2016-Jul-27 04:32N 45°34' W 122°45'41854.7
2016-Jul-27 04:32N 45°37' W 122°48'567718.9
2016-Jul-27 04:32N 46°11' W 123°51'39212.6
2016-Jul-27 04:21N 46°05' W 122°56'20103.5
2016-Jul-27 04:09N 46°12' W 123°23'4777.1
2016-Jul-27 03:32N 45°34' W 122°45'41058.6
2016-Jul-27 03:32N 45°37' W 122°48'5610035.3
2016-Jul-27 03:32N 46°11' W 123°51'20148.8
2016-Jul-27 03:24N 46°12' W 123°23'20132.3
2016-Jul-27 03:15N 46°05' W 122°56'2940.5
2016-Jul-27 02:32N 45°37' W 122°48'568028.2
2016-Jul-27 02:32N 46°11' W 123°51'391135.1
2016-Jul-27 02:30N 46°05' W 122°56'325557.0
2016-Jul-27 02:29N 45°34' W 122°45'47335.7
2016-Jul-27 02:21N 46°12' W 123°23'4758.1
2016-Jul-27 01:32N 45°34' W 122°45'4927.3
2016-Jul-27 01:32N 45°37' W 122°48'5610563.5
2016-Jul-27 01:32N 46°11' W 123°51'391099.6
2016-Jul-27 01:30N 46°05' W 122°56'2021.5
2016-Jul-27 00:33N 46°12' W 123°23'205637.4
2016-Jul-27 00:33N 46°05' W 122°56'392655.7
2016-Jul-27 00:32N 46°11' W 123°51'601443.5
2016-Jul-27 00:29N 45°34' W 122°45'41235.0
2016-Jul-27 00:29N 45°37' W 122°48'4 4.4
2016-Jul-26 23:32N 45°34' W 122°45'606145.1
2016-Jul-26 23:32N 46°11' W 123°51'391108.3
2016-Jul-26 23:30N 46°05' W 122°56'293128.5
2016-Jul-26 23:29N 45°37' W 122°48'5658.4
2016-Jul-26 22:32N 46°11' W 123°51'561223.8
2016-Jul-26 22:29N 45°37' W 122°48'493.2
2016-Jul-26 22:26N 45°34' W 122°45'32702.9
2016-Jul-26 22:24N 46°05' W 122°56'3238.0
2016-Jul-26 21:32N 45°34' W 122°45'605659.9
2016-Jul-26 21:32N 46°11' W 123°51'561262.2
2016-Jul-26 21:29N 45°37' W 122°48'29315.7
2016-Jul-26 21:24N 46°05' W 122°56'2082.7
2016-Jul-26 21:09N 46°12' W 123°23'0 0.0
2016-Jul-26 20:33N 46°12' W 123°23'433216.0
2016-Jul-26 20:32N 45°37' W 122°48'5611805.4
2016-Jul-26 20:32N 46°11' W 123°51'601493.6
2016-Jul-26 20:29N 45°34' W 122°45'32165.8
2016-Jul-26 20:18N 46°05' W 122°56'2027.3
2016-Jul-26 19:33N 46°12' W 123°23'475639.1
2016-Jul-26 19:32N 45°34' W 122°45'32711.4
2016-Jul-26 19:30N 46°05' W 122°56'392872.5
2016-Jul-26 19:29N 46°11' W 123°51'56383.0
2016-Jul-26 19:20N 45°37' W 122°48'4354.5
2016-Jul-26 18:33N 46°12' W 123°23'475834.2
2016-Jul-26 18:32N 45°34' W 122°45'4824.3
2016-Jul-26 18:32N 45°37' W 122°48'5611150.3
2016-Jul-26 18:32N 46°11' W 123°51'39209.8
2016-Jul-26 18:21N 46°05' W 122°56'2025.6
2016-Jul-26 17:33N 46°12' W 123°23'201116.9
2016-Jul-26 17:32N 46°11' W 123°51'601504.0
2016-Jul-26 17:29N 45°34' W 122°45'4741.0
2016-Jul-26 17:29N 45°37' W 122°48'29315.7
2016-Jul-26 17:24N 46°05' W 122°56'3237.9
2016-Jul-26 16:32N 45°34' W 122°45'4926.3
2016-Jul-26 16:32N 45°37' W 122°48'5610563.5
2016-Jul-26 16:32N 46°11' W 123°51'391135.1
2016-Jul-26 16:30N 46°05' W 122°56'3234.0
2016-Jul-26 15:32N 45°34' W 122°45'4674.4
2016-Jul-26 15:32N 45°37' W 122°48'5614335.2
2016-Jul-26 15:32N 46°11' W 123°51'3989.6
2016-Jul-26 15:06N 46°05' W 122°56'3258.5
2016-Jul-26 14:32N 45°34' W 122°45'4780.9
2016-Jul-26 14:32N 45°37' W 122°48'5612544.1
2016-Jul-26 14:32N 46°11' W 123°51'39287.8
2016-Jul-26 14:24N 46°05' W 122°56'2934.4
2016-Jul-26 13:34N 45°37' W 122°48'4209.0
2016-Jul-26 13:32N 45°34' W 122°45'601000.4
2016-Jul-26 13:29N 46°11' W 123°51'39451.1
2016-Jul-26 13:24N 46°05' W 122°56'3238.0
2016-Jul-26 12:32N 45°34' W 122°45'605812.9
2016-Jul-26 12:32N 46°11' W 123°51'391042.6
2016-Jul-26 12:30N 46°05' W 122°56'29123.1
2016-Jul-26 12:16N 45°37' W 122°48'4 5.7
2016-Jul-26 11:32N 45°34' W 122°45'606721.2
2016-Jul-26 11:32N 46°11' W 123°51'562606.4
2016-Jul-26 11:31N 45°37' W 122°48'291780.0
2016-Jul-26 11:30N 46°05' W 122°56'3234.0
2016-Jul-26 10:32N 45°34' W 122°45'606325.8
2016-Jul-26 10:32N 46°11' W 123°51'56462.5
2016-Jul-26 10:25N 45°37' W 122°48'291692.5
2016-Jul-26 10:24N 46°05' W 122°56'2082.8
2016-Jul-26 10:09N 46°12' W 123°23'2033.7
2016-Jul-26 09:33N 46°05' W 122°56'392994.7
2016-Jul-26 09:32N 46°11' W 123°51'56460.3
2016-Jul-26 09:25N 45°37' W 122°48'4208.7
2016-Jul-26 09:23N 45°34' W 122°45'47328.5
2016-Jul-26 09:15N 46°12' W 123°23'0 0.0
2016-Jul-26 08:33N 46°12' W 123°23'477048.9
2016-Jul-26 08:32N 45°34' W 122°45'606145.1
2016-Jul-26 08:32N 46°11' W 123°51'391050.4
2016-Jul-26 08:30N 46°05' W 122°56'29853.2
2016-Jul-26 08:28N 45°37' W 122°48'5660.1
2016-Jul-26 07:32N 46°11' W 123°51'391027.4
2016-Jul-26 07:30N 46°05' W 122°56'29853.2
2016-Jul-26 07:28N 45°37' W 122°48'459.8
2016-Jul-26 07:23N 45°34' W 122°45'0 0.0
2016-Jul-26 06:32N 45°34' W 122°45'605812.9
2016-Jul-26 06:32N 46°11' W 123°51'39445.4
2016-Jul-26 06:27N 46°05' W 122°56'29860.3
2016-Jul-26 06:25N 45°37' W 122°48'4 4.7
2016-Jul-26 05:33N 45°34' W 122°45'605974.4
2016-Jul-26 05:32N 46°11' W 123°51'391042.6
2016-Jul-26 05:30N 46°05' W 122°56'29340.7
2016-Jul-26 05:25N 45°37' W 122°48'5663.5
2016-Jul-26 04:32N 46°11' W 123°51'391034.9
2016-Jul-26 04:30N 46°05' W 122°56'3214587.2
2016-Jul-26 04:29N 45°34' W 122°45'4130.2
2016-Jul-26 04:28N 45°37' W 122°48'5660.1
2016-Jul-26 03:32N 46°11' W 123°51'562447.6
2016-Jul-26 03:31N 45°37' W 122°48'291749.8
2016-Jul-26 03:30N 46°05' W 122°56'3238892.1
2016-Jul-26 03:30N 45°34' W 122°45'47192.0
2016-Jul-26 03:15N 46°12' W 123°23'0 0.0
2016-Jul-26 02:33N 46°12' W 123°23'431135.1
2016-Jul-26 02:31N 45°37' W 122°48'4224.5
2016-Jul-26 02:29N 45°34' W 122°45'607169.2
2016-Jul-26 02:29N 46°11' W 123°51'39438.5
2016-Jul-26 02:24N 46°05' W 122°56'3945.4
2016-Jul-26 01:32N 46°11' W 123°51'391012.6
2016-Jul-26 01:30N 46°05' W 122°56'3219446.0
2016-Jul-26 01:30N 45°34' W 122°45'4131.2
2016-Jul-26 01:28N 45°37' W 122°48'433355.8
2016-Jul-26 01:27N 46°12' W 123°23'2021.4
2016-Jul-26 00:32N 46°11' W 123°51'56766.1
2016-Jul-26 00:28N 45°37' W 122°48'433589.9
2016-Jul-26 00:27N 46°12' W 123°23'47833.4
2016-Jul-26 00:24N 45°34' W 122°45'32218.5
2016-Jul-26 00:15N 46°05' W 122°56'3246.2
2016-Jul-25 23:32N 45°34' W 122°45'4134.9
2016-Jul-25 23:31N 45°37' W 122°48'561929.9
2016-Jul-25 23:29N 46°11' W 123°51'20567.4
2016-Jul-25 23:27N 46°12' W 123°23'20133.5
2016-Jul-25 23:18N 46°05' W 122°56'2939.0
2016-Jul-25 22:34N 45°37' W 122°48'4449.1
2016-Jul-25 22:33N 45°34' W 122°45'603360.6
2016-Jul-25 22:32N 46°11' W 123°51'39280.9
2016-Jul-25 22:24N 46°05' W 122°56'3945.4
2016-Jul-25 21:32N 46°11' W 123°51'562447.6
2016-Jul-25 21:31N 45°37' W 122°48'291692.5
2016-Jul-25 21:30N 46°05' W 122°56'3258348.6
2016-Jul-25 21:30N 45°34' W 122°45'47325.4
2016-Jul-25 21:21N 46°12' W 123°23'0 0.0
2016-Jul-25 20:33N 46°12' W 123°23'478459.6
2016-Jul-25 20:33N 45°34' W 122°45'607169.2
2016-Jul-25 20:32N 46°11' W 123°51'562280.6
2016-Jul-25 20:31N 45°37' W 122°48'291811.2
2016-Jul-25 20:30N 46°05' W 122°56'3234.1
2016-Jul-25 19:33N 45°34' W 122°45'606517.5
2016-Jul-25 19:32N 46°11' W 123°51'562361.1
2016-Jul-25 19:31N 45°37' W 122°48'29246.4
2016-Jul-25 19:24N 46°05' W 122°56'2082.8
2016-Jul-25 19:09N 46°12' W 123°23'2029.4
2016-Jul-25 18:29N 46°11' W 123°51'562418.1
2016-Jul-25 18:28N 45°37' W 122°48'433355.8
2016-Jul-25 18:27N 46°12' W 123°23'4710574.4
2016-Jul-25 18:27N 45°34' W 122°45'32655.6
2016-Jul-25 18:24N 46°05' W 122°56'3945.5
2016-Jul-25 17:32N 46°11' W 123°51'562361.2
2016-Jul-25 17:31N 45°37' W 122°48'4243.0
2016-Jul-25 17:30N 45°34' W 122°45'471019.1
2016-Jul-25 17:27N 46°12' W 123°23'20132.3
2016-Jul-25 17:18N 46°05' W 122°56'3951.4
2016-Jul-25 16:32N 46°11' W 123°51'562361.2
2016-Jul-25 16:31N 45°37' W 122°48'291911.9
2016-Jul-25 16:30N 46°05' W 122°56'32752.9
2016-Jul-25 16:27N 45°34' W 122°45'47230.8
2016-Jul-25 16:15N 46°12' W 123°23'4767.5
2016-Jul-25 15:33N 45°34' W 122°45'603525.8
2016-Jul-25 15:32N 46°11' W 123°51'39279.8
2016-Jul-25 15:24N 46°05' W 122°56'20433.6
2016-Jul-25 15:21N 46°12' W 123°23'433675.4
2016-Jul-25 15:20N 45°37' W 122°48'4 5.3
2016-Jul-25 14:33N 45°34' W 122°45'4260.3
2016-Jul-25 14:32N 45°37' W 122°48'56100346.2
2016-Jul-25 14:32N 46°11' W 123°51'39114.4
2016-Jul-25 14:12N 46°05' W 122°56'2031.5
2016-Jul-25 13:33N 46°12' W 123°23'4712085.1
2016-Jul-25 13:33N 45°34' W 122°45'4449.6
2016-Jul-25 13:32N 45°37' W 122°48'5640141.1
2016-Jul-25 13:32N 46°11' W 123°51'39280.4
2016-Jul-25 13:24N 46°05' W 122°56'3238.1
2016-Jul-25 12:33N 45°34' W 122°45'4549.5
2016-Jul-25 12:32N 45°37' W 122°48'5666901.9
2016-Jul-25 12:32N 46°11' W 123°51'39970.7
2016-Jul-25 12:30N 46°05' W 122°56'0 0.0
2016-Jul-25 11:33N 46°05' W 122°56'394691.6
2016-Jul-25 11:32N 46°11' W 123°51'601473.1
2016-Jul-25 11:30N 45°34' W 122°45'470.3
2016-Jul-25 11:26N 45°37' W 122°48'43228.0
2016-Jul-25 11:15N 46°12' W 123°23'4360.2
2016-Jul-25 10:32N 45°37' W 122°48'56200705.6
2016-Jul-25 10:32N 46°11' W 123°51'601483.3
2016-Jul-25 10:30N 45°34' W 122°45'3238892.1
2016-Jul-25 10:30N 46°05' W 122°56'0 0.0
2016-Jul-25 09:33N 46°05' W 122°56'32116676.3
2016-Jul-25 09:33N 45°34' W 122°45'606517.5
2016-Jul-25 09:32N 46°11' W 123°51'20224.8
2016-Jul-25 09:27N 46°12' W 123°23'43382.1
2016-Jul-25 09:20N 45°37' W 122°48'2936.2
2016-Jul-25 08:33N 46°05' W 122°56'394853.5
2016-Jul-25 08:32N 46°11' W 123°51'56200705.6
2016-Jul-25 08:32N 45°37' W 122°48'4101.6
2016-Jul-25 08:30N 45°34' W 122°45'47321.0
2016-Jul-25 08:21N 46°12' W 123°23'4352.9
2016-Jul-25 07:32N 45°37' W 122°48'5618246.0
2016-Jul-25 07:32N 46°11' W 123°51'39279.8
2016-Jul-25 07:24N 46°05' W 122°56'20455.2
2016-Jul-25 07:21N 46°12' W 123°23'47881.2
2016-Jul-25 07:18N 45°34' W 122°45'4762.9
2016-Jul-25 06:33N 46°12' W 123°23'4716919.1
2016-Jul-25 06:33N 45°34' W 122°45'606938.4
2016-Jul-25 06:32N 46°11' W 123°51'39424.0
2016-Jul-25 06:27N 46°05' W 122°56'29179.5
2016-Jul-25 06:17N 45°37' W 122°48'4 5.6
2016-Jul-25 05:33N 45°34' W 122°45'4494.0
2016-Jul-25 05:32N 45°37' W 122°48'5620070.6
2016-Jul-25 05:32N 46°11' W 123°51'39944.6
2016-Jul-25 05:30N 46°05' W 122°56'0 0.0
2016-Jul-25 04:33N 46°05' W 122°56'293441.4
2016-Jul-25 04:32N 45°37' W 122°48'4105.2
2016-Jul-25 04:30N 45°34' W 122°45'0 0.0
2016-Jul-25 03:33N 45°34' W 122°45'604779.5
2016-Jul-25 03:32N 46°11' W 123°51'39957.5
2016-Jul-25 03:30N 46°05' W 122°56'293441.4
2016-Jul-25 03:29N 45°37' W 122°48'5658.9
2016-Jul-25 02:32N 46°11' W 123°51'5620070.6
2016-Jul-25 02:32N 45°37' W 122°48'4105.9
2016-Jul-25 02:30N 45°34' W 122°45'47180.4
2016-Jul-25 02:14N 46°12' W 123°23'20485.3
2016-Jul-25 02:12N 46°05' W 122°56'0 0.0
2016-Jul-25 01:33N 46°05' W 122°56'293441.4
2016-Jul-25 01:32N 45°37' W 122°48'5650176.4
2016-Jul-25 01:32N 46°11' W 123°51'60252.1
2016-Jul-25 01:18N 45°34' W 122°45'3243.0
2016-Jul-25 00:33N 46°05' W 122°56'397037.6
2016-Jul-25 00:32N 46°11' W 123°51'601424.4
2016-Jul-25 00:30N 45°34' W 122°45'474126.6
2016-Jul-25 00:29N 46°12' W 123°23'43852.9
2016-Jul-25 00:26N 45°37' W 122°48'4 4.6
2016-Jul-24 23:33N 45°34' W 122°45'3211667.6
2016-Jul-24 23:33N 46°05' W 122°56'293441.4
2016-Jul-24 23:32N 45°37' W 122°48'43107.1
2016-Jul-24 23:08N 46°12' W 123°23'2032.6
2016-Jul-24 22:32N 46°11' W 123°51'56552.9
2016-Jul-24 22:26N 45°37' W 122°48'4105.2
2016-Jul-24 22:24N 45°34' W 122°45'6069.5
2016-Jul-24 21:32N 46°11' W 123°51'601525.5
2016-Jul-24 21:30N 45°34' W 122°45'3211669.7
2016-Jul-24 21:30N 46°05' W 122°56'29489.3
2016-Jul-24 21:26N 45°37' W 122°48'43142.9
2016-Jul-24 21:08N 46°12' W 123°23'4779.5
2016-Jul-24 20:33N 45°34' W 122°45'606145.1
2016-Jul-24 20:32N 46°11' W 123°51'39964.0
2016-Jul-24 20:30N 46°05' W 122°56'293441.4
2016-Jul-24 20:29N 45°37' W 122°48'43848.2
2016-Jul-24 20:26N 46°12' W 123°23'4752.9
2016-Jul-24 19:33N 45°34' W 122°45'474229.8
2016-Jul-24 19:32N 46°12' W 123°23'20482.1
2016-Jul-24 19:30N 46°05' W 122°56'29179.5
2016-Jul-24 19:20N 45°37' W 122°48'2936.3
2016-Jul-24 18:33N 46°05' W 122°56'394691.7
2016-Jul-24 18:32N 46°11' W 123°51'60665.9
2016-Jul-24 18:27N 45°34' W 122°45'0 0.0
2016-Jul-24 17:33N 45°34' W 122°45'4370.5
2016-Jul-24 17:32N 45°37' W 122°48'43437.3
2016-Jul-24 17:26N 46°12' W 123°23'20142.6
2016-Jul-24 17:18N 46°05' W 122°56'0 0.0
2016-Jul-24 16:33N 46°05' W 122°56'202442.9
2016-Jul-24 16:32N 46°12' W 123°23'2017590.9
2016-Jul-24 16:32N 46°11' W 123°51'60674.3
2016-Jul-24 16:27N 45°34' W 122°45'6065.6
2016-Jul-24 15:32N 46°11' W 123°51'5640141.1
2016-Jul-24 15:32N 45°37' W 122°48'4113.3
2016-Jul-24 15:30N 45°34' W 122°45'32611.0
2016-Jul-24 15:27N 46°05' W 122°56'3943.0
2016-Jul-24 14:32N 46°11' W 123°51'39896.5
2016-Jul-24 14:30N 46°05' W 122°56'29491.6
2016-Jul-24 14:26N 45°37' W 122°48'431816.1
2016-Jul-24 14:25N 46°12' W 123°23'473253.3
2016-Jul-24 14:24N 45°34' W 122°45'0 0.0
2016-Jul-24 13:33N 45°34' W 122°45'327779.8
2016-Jul-24 13:33N 46°05' W 122°56'396702.5
2016-Jul-24 13:32N 46°11' W 123°51'5625088.2
2016-Jul-24 13:32N 45°37' W 122°48'43190.8
2016-Jul-24 13:19N 46°12' W 123°23'2025.3
2016-Jul-24 12:32N 46°11' W 123°51'5622300.6
2016-Jul-24 12:32N 45°37' W 122°48'43573.9
2016-Jul-24 12:28N 46°12' W 123°23'201242.1
2016-Jul-24 12:27N 46°05' W 122°56'32221.0
2016-Jul-24 12:18N 45°34' W 122°45'4 5.4
2016-Jul-24 11:32N 45°37' W 122°48'431816.1
2016-Jul-24 11:31N 46°12' W 123°23'473452.9
2016-Jul-24 11:30N 45°34' W 122°45'605659.9
2016-Jul-24 11:29N 46°11' W 123°51'39908.1
2016-Jul-24 11:27N 46°05' W 122°56'3236.2
2016-Jul-24 10:33N 45°34' W 122°45'325833.8
2016-Jul-24 10:33N 46°05' W 122°56'398797.0
2016-Jul-24 10:32N 46°11' W 123°51'5614336.1
2016-Jul-24 10:32N 45°37' W 122°48'43348.5
2016-Jul-24 10:25N 46°12' W 123°23'4754.4
2016-Jul-24 09:33N 45°34' W 122°45'606938.0
2016-Jul-24 09:32N 46°11' W 123°51'5615438.9
2016-Jul-24 09:32N 45°37' W 122°48'431754.2
2016-Jul-24 09:31N 46°12' W 123°23'20174.1
2016-Jul-24 09:24N 46°05' W 122°56'3238.3
2016-Jul-24 08:33N 45°34' W 122°45'605660.3
2016-Jul-24 08:32N 46°11' W 123°51'39868.8
2016-Jul-24 08:30N 46°05' W 122°56'294301.7
2016-Jul-24 08:29N 45°37' W 122°48'43567.5
2016-Jul-24 08:25N 46°12' W 123°23'2022.4
2016-Jul-24 07:32N 46°11' W 123°51'20718.0
2016-Jul-24 07:31N 46°12' W 123°23'20469.8
2016-Jul-24 07:28N 46°05' W 122°56'321576.7
2016-Jul-24 07:27N 45°34' W 122°45'4329.3
2016-Jul-24 07:26N 45°37' W 122°48'4 4.6
2016-Jul-24 06:33N 45°34' W 122°45'4315.7
2016-Jul-24 06:32N 45°37' W 122°48'561216.3
2016-Jul-24 06:29N 46°11' W 123°51'39227.4
2016-Jul-24 06:19N 46°05' W 122°56'3242.6
2016-Jul-24 05:33N 45°34' W 122°45'603413.9
2016-Jul-24 05:32N 46°11' W 123°51'5615438.9
2016-Jul-24 05:32N 45°37' W 122°48'29424.9
2016-Jul-24 05:28N 46°05' W 122°56'20357.5
2016-Jul-24 05:25N 46°12' W 123°23'2022.4
2016-Jul-24 04:32N 46°11' W 123°51'5612544.1
2016-Jul-24 04:32N 45°37' W 122°48'431795.0
2016-Jul-24 04:31N 46°12' W 123°23'473759.8
2016-Jul-24 04:30N 45°34' W 122°45'321070.6
2016-Jul-24 04:28N 46°05' W 122°56'3942.1
2016-Jul-24 03:32N 46°11' W 123°51'5613380.4
2016-Jul-24 03:32N 45°37' W 122°48'29245.2
2016-Jul-24 03:25N 46°05' W 122°56'321691.0
2016-Jul-24 03:24N 45°34' W 122°45'0 0.0
2016-Jul-24 02:33N 45°34' W 122°45'606325.8
2016-Jul-24 02:32N 46°11' W 123°51'5615438.9
2016-Jul-24 02:32N 45°37' W 122°48'4 4.2
2016-Jul-24 01:33N 45°34' W 122°45'606325.8
2016-Jul-24 01:32N 46°11' W 123°51'5610035.3
2016-Jul-24 01:32N 45°37' W 122°48'43346.9
2016-Jul-24 01:25N 46°12' W 123°23'20469.8
2016-Jul-24 01:22N 46°05' W 122°56'3239.2
2016-Jul-24 00:32N 45°34' W 122°45'6035848.4
2016-Jul-24 00:32N 46°11' W 123°51'39545.5
2016-Jul-24 00:28N 46°05' W 122°56'29890.0
2016-Jul-24 00:26N 45°37' W 122°48'431754.2
2016-Jul-24 00:25N 46°12' W 123°23'4754.0
2016-Jul-23 23:32N 45°34' W 122°45'6035846.1
2016-Jul-23 23:32N 46°11' W 123°51'20683.1
2016-Jul-23 23:31N 46°12' W 123°23'431677.9
2016-Jul-23 23:29N 45°37' W 122°48'291665.2
2016-Jul-23 23:28N 46°05' W 122°56'3942.1
2016-Jul-23 22:32N 46°11' W 123°51'5614336.1
2016-Jul-23 22:32N 45°37' W 122°48'431754.2
2016-Jul-23 22:31N 46°12' W 123°23'20475.9
2016-Jul-23 22:28N 46°05' W 122°56'321215.4
2016-Jul-23 22:26N 45°34' W 122°45'6066.3
2016-Jul-23 21:32N 46°11' W 123°51'5610563.5
2016-Jul-23 21:32N 45°37' W 122°48'29171.5
2016-Jul-23 21:22N 46°05' W 122°56'321228.4
2016-Jul-23 21:20N 45°34' W 122°45'471596.1
2016-Jul-23 21:19N 46°12' W 123°23'4761.0
2016-Jul-23 20:33N 45°34' W 122°45'6043018.1
2016-Jul-23 20:32N 46°11' W 123°51'5610563.5
2016-Jul-23 20:32N 45°37' W 122°48'431754.2
2016-Jul-23 20:31N 46°12' W 123°23'20475.9
2016-Jul-23 20:28N 46°05' W 122°56'3235.0
2016-Jul-23 19:33N 45°34' W 122°45'6030727.2
2016-Jul-23 19:32N 46°11' W 123°51'5613380.4
2016-Jul-23 19:32N 45°37' W 122°48'431816.1
2016-Jul-23 19:31N 46°12' W 123°23'20466.8
2016-Jul-23 19:28N 46°05' W 122°56'3235.0
2016-Jul-23 18:33N 45°34' W 122°45'6053769.2
2016-Jul-23 18:32N 46°11' W 123°51'568362.7
2016-Jul-23 18:32N 45°37' W 122°48'291720.7
2016-Jul-23 18:31N 46°05' W 122°56'202818.7
2016-Jul-23 18:31N 46°12' W 123°23'2020.1
2016-Jul-23 17:32N 46°11' W 123°51'5610563.5
2016-Jul-23 17:32N 45°37' W 122°48'291323.6
2016-Jul-23 17:31N 46°05' W 122°56'206662.3
2016-Jul-23 17:31N 46°12' W 123°23'474337.8
2016-Jul-23 17:30N 45°34' W 122°45'0 0.0
2016-Jul-23 16:32N 45°34' W 122°45'4644.4
2016-Jul-23 16:32N 45°37' W 122°48'291323.6
2016-Jul-23 16:31N 46°05' W 122°56'391804.5
2016-Jul-23 16:30N 46°11' W 123°51'2069.7
2016-Jul-23 16:13N 46°12' W 123°23'4770.3
2016-Jul-23 15:33N 45°34' W 122°45'6021509.0
2016-Jul-23 15:32N 46°11' W 123°51'5614336.1
2016-Jul-23 15:32N 45°37' W 122°48'291274.6
2016-Jul-23 15:31N 46°05' W 122°56'3233.3
2016-Jul-23 14:33N 45°34' W 122°45'6071696.8
2016-Jul-23 14:32N 46°11' W 123°51'56998.5
2016-Jul-23 14:29N 45°37' W 122°48'29167.6
2016-Jul-23 14:19N 46°05' W 122°56'207328.6
2016-Jul-23 14:19N 46°12' W 123°23'4761.1
2016-Jul-23 13:33N 45°34' W 122°45'6071696.8
2016-Jul-23 13:32N 46°11' W 123°51'20645.5
2016-Jul-23 13:31N 46°12' W 123°23'431696.3
2016-Jul-23 13:29N 45°37' W 122°48'29105.2
2016-Jul-23 13:13N 46°05' W 122°56'3958.3
2016-Jul-23 12:33N 46°11' W 123°51'567433.5
2016-Jul-23 12:32N 45°37' W 122°48'4121.6
2016-Jul-23 12:30N 45°34' W 122°45'32173.1
2016-Jul-23 12:19N 46°05' W 122°56'3950.6
2016-Jul-23 11:32N 46°11' W 123°51'569556.8
2016-Jul-23 11:32N 45°37' W 122°48'291274.6
2016-Jul-23 11:31N 46°05' W 122°56'322651.7
2016-Jul-23 11:30N 45°34' W 122°45'0 0.0
2016-Jul-23 10:33N 45°34' W 122°45'606938.0
2016-Jul-23 10:33N 46°11' W 123°51'567433.5
2016-Jul-23 10:32N 45°37' W 122°48'29129.4
2016-Jul-23 10:19N 46°05' W 122°56'3242.1
2016-Jul-23 09:33N 45°34' W 122°45'4463.7
2016-Jul-23 09:32N 45°37' W 122°48'291340.8
2016-Jul-23 09:31N 46°05' W 122°56'391827.9
2016-Jul-23 09:30N 46°11' W 123°51'2051.2
2016-Jul-23 09:07N 46°12' W 123°23'2034.3
2016-Jul-23 08:32N 46°11' W 123°51'568726.3
2016-Jul-23 08:32N 45°37' W 122°48'291358.4
2016-Jul-23 08:31N 46°05' W 122°56'32463.0
2016-Jul-23 08:27N 45°34' W 122°45'471433.7
2016-Jul-23 08:25N 46°12' W 123°23'4754.2
2016-Jul-23 07:33N 45°34' W 122°45'60107545.2
2016-Jul-23 07:33N 46°11' W 123°51'567719.4
2016-Jul-23 07:32N 45°37' W 122°48'291358.4
2016-Jul-23 07:31N 46°05' W 122°56'2067.1
2016-Jul-23 07:13N 46°12' W 123°23'2029.3
2016-Jul-23 06:33N 46°11' W 123°51'566920.4
2016-Jul-23 06:32N 45°37' W 122°48'499.6
2016-Jul-23 06:30N 45°34' W 122°45'321080.5
2016-Jul-23 06:28N 46°05' W 122°56'3920.4
2016-Jul-23 04:33N 46°11' W 123°51'391303.3
2016-Jul-23 04:31N 46°05' W 122°56'29983.2
2016-Jul-23 04:29N 45°37' W 122°48'4164.7
2016-Jul-23 04:28N 45°34' W 122°45'0 0.0
2016-Jul-23 03:33N 45°34' W 122°45'4235.2
2016-Jul-23 03:32N 45°37' W 122°48'291376.5
2016-Jul-23 03:31N 46°05' W 122°56'391827.9
2016-Jul-23 03:30N 46°11' W 123°51'6063.6
2016-Jul-23 02:33N 45°34' W 122°45'606145.4
2016-Jul-23 02:33N 46°11' W 123°51'566920.9
2016-Jul-23 02:32N 45°37' W 122°48'29236.8
2016-Jul-23 02:25N 46°05' W 122°56'3237.6
2016-Jul-23 01:33N 45°34' W 122°45'606326.2
2016-Jul-23 01:33N 46°11' W 123°51'566690.2
2016-Jul-23 01:32N 45°37' W 122°48'291340.8
2016-Jul-23 01:31N 46°05' W 122°56'20100.5
2016-Jul-23 01:19N 46°12' W 123°23'2025.5
2016-Jul-23 00:33N 46°11' W 123°51'601188.3
2016-Jul-23 00:30N 45°34' W 122°45'469.3
2016-Jul-23 00:26N 45°37' W 122°48'43191.8
2016-Jul-23 00:13N 46°12' W 123°23'20428.6
2016-Jul-23 00:10N 46°05' W 122°56'3252.3
2016-Jul-22 23:33N 45°34' W 122°45'601168.9
2016-Jul-22 23:30N 46°11' W 123°51'566920.9
2016-Jul-22 23:29N 45°37' W 122°48'29235.2
2016-Jul-22 23:22N 46°05' W 122°56'3947.7
2016-Jul-22 22:33N 46°11' W 123°51'391291.3
2016-Jul-22 22:31N 46°05' W 122°56'321691.0
2016-Jul-22 22:30N 45°34' W 122°45'4478.1
2016-Jul-22 22:29N 45°37' W 122°48'43155.6
2016-Jul-22 22:13N 46°12' W 123°23'2029.3
2016-Jul-22 21:33N 46°11' W 123°51'565734.4
2016-Jul-22 21:32N 45°37' W 122°48'431795.0
2016-Jul-22 21:31N 46°12' W 123°23'472968.3
2016-Jul-22 21:30N 45°34' W 122°45'321014.8
2016-Jul-22 21:28N 46°05' W 122°56'3942.5
2016-Jul-22 20:33N 46°11' W 123°51'566271.6
2016-Jul-22 20:32N 45°37' W 122°48'291306.8
2016-Jul-22 20:31N 46°05' W 122°56'321768.1
2016-Jul-22 20:30N 45°34' W 122°45'47560.2
2016-Jul-22 20:25N 46°12' W 123°23'2022.6
2016-Jul-22 19:33N 46°11' W 123°51'565734.4
2016-Jul-22 19:32N 45°37' W 122°48'4102.9
2016-Jul-22 19:30N 45°34' W 122°45'32247.7
2016-Jul-22 19:22N 46°05' W 122°56'20133.0
2016-Jul-22 19:13N 46°12' W 123°23'4770.5
2016-Jul-22 18:33N 45°34' W 122°45'6071692.3
2016-Jul-22 18:33N 46°11' W 123°51'566272.1
2016-Jul-22 18:32N 45°37' W 122°48'291433.9
2016-Jul-22 18:31N 46°05' W 122°56'3940.3
2016-Jul-22 17:33N 46°11' W 123°51'391291.3
2016-Jul-22 17:31N 46°05' W 122°56'321823.1
2016-Jul-22 17:30N 45°34' W 122°45'467.1
2016-Jul-22 17:26N 45°37' W 122°48'431837.7
2016-Jul-22 17:25N 46°12' W 123°23'2022.5
2016-Jul-22 16:33N 46°11' W 123°51'566690.2
2016-Jul-22 16:32N 45°37' W 122°48'291323.6
2016-Jul-22 16:31N 46°05' W 122°56'207328.6
2016-Jul-22 16:31N 46°12' W 123°23'473075.9
2016-Jul-22 16:30N 45°34' W 122°45'0 0.0
2016-Jul-22 15:33N 45°34' W 122°45'6053769.2
2016-Jul-22 15:33N 46°11' W 123°51'565575.2
2016-Jul-22 15:32N 45°37' W 122°48'431754.2
2016-Jul-22 15:31N 46°12' W 123°23'20428.6
2016-Jul-22 15:28N 46°05' W 122°56'3942.5
2016-Jul-22 14:33N 46°11' W 123°51'566272.1
2016-Jul-22 14:32N 45°37' W 122°48'4104.5
2016-Jul-22 14:30N 45°34' W 122°45'32395.6
2016-Jul-22 14:25N 46°05' W 122°56'207328.6
2016-Jul-22 14:25N 46°12' W 123°23'2022.6
2016-Jul-22 13:33N 46°11' W 123°51'565575.2
2016-Jul-22 13:32N 45°37' W 122°48'291358.4
2016-Jul-22 13:31N 46°05' W 122°56'321823.4
2016-Jul-22 13:30N 45°34' W 122°45'47554.7
2016-Jul-22 13:25N 46°12' W 123°23'4754.3
2016-Jul-22 12:33N 45°34' W 122°45'4370.5
2016-Jul-22 12:32N 45°37' W 122°48'291358.4
2016-Jul-22 12:31N 46°05' W 122°56'392069.9
2016-Jul-22 12:30N 46°11' W 123°51'6063.0
2016-Jul-22 11:33N 45°34' W 122°45'6030725.3
2016-Jul-22 11:33N 46°11' W 123°51'566082.0
2016-Jul-22 11:32N 45°37' W 122°48'291306.8
2016-Jul-22 11:31N 46°05' W 122°56'3233.6
2016-Jul-22 10:33N 45°34' W 122°45'6016544.4
2016-Jul-22 10:33N 46°11' W 123°51'391245.6
2016-Jul-22 10:31N 46°05' W 122°56'2012214.3
2016-Jul-22 10:31N 46°12' W 123°23'43563.4
2016-Jul-22 10:26N 45°37' W 122°48'5662.6
2016-Jul-22 09:33N 46°11' W 123°51'391256.7
2016-Jul-22 09:31N 46°05' W 122°56'321852.0
2016-Jul-22 09:30N 45°34' W 122°45'4336.8
2016-Jul-22 09:29N 45°37' W 122°48'43156.7
2016-Jul-22 09:13N 46°12' W 123°23'2029.4
2016-Jul-22 08:33N 46°11' W 123°51'565017.6
2016-Jul-22 08:32N 45°37' W 122°48'29237.9
2016-Jul-22 08:25N 46°05' W 122°56'20100.8
2016-Jul-22 08:13N 46°12' W 123°23'47729.3
2016-Jul-22 08:09N 45°34' W 122°45'0 0.0
2016-Jul-22 07:33N 45°34' W 122°45'32778.0
2016-Jul-22 07:31N 46°05' W 122°56'206662.3
2016-Jul-22 07:31N 46°12' W 123°23'201379.7
2016-Jul-22 07:30N 46°11' W 123°51'56496.8
2016-Jul-22 07:23N 45°37' W 122°48'4 2.3
2016-Jul-22 05:33N 45°34' W 122°45'0 0.0
2016-Jul-22 04:33N 45°34' W 122°45'606517.9
2016-Jul-22 04:33N 46°11' W 123°51'39475.5
2016-Jul-22 04:28N 46°05' W 122°56'29221.5
2016-Jul-22 04:20N 45°37' W 122°48'43191.8
2016-Jul-22 04:07N 46°12' W 123°23'4784.6
2016-Jul-22 03:33N 45°34' W 122°45'606145.1
2016-Jul-22 03:33N 46°11' W 123°51'391223.9
2016-Jul-22 03:31N 46°05' W 122°56'206662.3
2016-Jul-22 03:31N 46°12' W 123°23'43569.6
2016-Jul-22 03:26N 45°37' W 122°48'4 4.7
2016-Jul-22 02:33N 45°34' W 122°45'606326.2
2016-Jul-22 02:33N 46°11' W 123°51'565424.5
2016-Jul-22 02:32N 45°37' W 122°48'291306.8
2016-Jul-22 02:31N 46°05' W 122°56'2067.3
2016-Jul-22 02:13N 46°12' W 123°23'2029.4
2016-Jul-22 01:33N 46°11' W 123°51'565281.7
2016-Jul-22 01:32N 45°37' W 122°48'4109.8
2016-Jul-22 01:30N 45°34' W 122°45'32175.5
2016-Jul-22 01:19N 46°05' W 122°56'20100.7
2016-Jul-22 01:07N 46°12' W 123°23'4783.5
2016-Jul-22 00:33N 45°34' W 122°45'4345.1
2016-Jul-22 00:32N 45°37' W 122°48'561403.5
2016-Jul-22 00:30N 46°11' W 123°51'20228.5
2016-Jul-22 00:25N 46°12' W 123°23'2022.6
2016-Jul-21 23:33N 46°11' W 123°51'564778.7
2016-Jul-21 23:32N 45°37' W 122°48'431837.7
2016-Jul-21 23:31N 46°12' W 123°23'473677.7
2016-Jul-21 23:30N 45°34' W 122°45'32911.5
2016-Jul-21 23:28N 46°05' W 122°56'3942.7
2016-Jul-21 22:33N 46°11' W 123°51'60402.8
2016-Jul-21 22:24N 45°34' W 122°45'4309.1
2016-Jul-21 22:23N 45°37' W 122°48'29130.2
2016-Jul-21 22:10N 46°05' W 122°56'3963.3
2016-Jul-21 21:33N 46°11' W 123°51'391203.0
2016-Jul-21 21:31N 46°05' W 122°56'29974.0
2016-Jul-21 21:29N 45°37' W 122°48'4113.3
2016-Jul-21 21:27N 45°34' W 122°45'471272.1
2016-Jul-21 21:25N 46°12' W 123°23'4754.5
2016-Jul-21 20:33N 45°34' W 122°45'32933.6
2016-Jul-21 20:31N 46°05' W 122°56'392385.6
2016-Jul-21 20:30N 46°11' W 123°51'56904.1
2016-Jul-21 20:26N 45°37' W 122°48'43342.3
2016-Jul-21 20:19N 46°12' W 123°23'2025.6
2016-Jul-21 19:33N 46°11' W 123°51'20545.5
2016-Jul-21 19:31N 46°12' W 123°23'431608.0
2016-Jul-21 19:29N 45°37' W 122°48'29401.7
2016-Jul-21 19:25N 46°05' W 122°56'32281.8
2016-Jul-21 19:18N 45°34' W 122°45'6079.5
2016-Jul-21 18:33N 46°11' W 123°51'20529.1
2016-Jul-21 18:31N 46°12' W 123°23'474028.4
2016-Jul-21 18:30N 45°34' W 122°45'4302.8
2016-Jul-21 18:29N 45°37' W 122°48'29404.9
2016-Jul-21 18:25N 46°05' W 122°56'3237.5
2016-Jul-21 17:33N 45°34' W 122°45'6035846.1
2016-Jul-21 17:33N 46°11' W 123°51'565017.6
2016-Jul-21 17:32N 45°37' W 122°48'431734.5
2016-Jul-21 17:31N 46°12' W 123°23'20428.6
2016-Jul-21 17:28N 46°05' W 122°56'3235.4
2016-Jul-21 16:33N 45°34' W 122°45'6071692.3
2016-Jul-21 16:33N 46°11' W 123°51'391117.1
2016-Jul-21 16:31N 46°05' W 122°56'209160.7
2016-Jul-21 16:31N 46°12' W 123°23'43155.6
2016-Jul-21 16:14N 45°37' W 122°48'5681.0
2016-Jul-21 15:33N 46°11' W 123°51'39464.5
2016-Jul-21 15:28N 46°05' W 122°56'322482.9
2016-Jul-21 15:27N 45°34' W 122°45'4280.0
2016-Jul-21 15:26N 45°37' W 122°48'431795.0
2016-Jul-21 15:25N 46°12' W 123°23'4754.5
2016-Jul-21 14:33N 45°34' W 122°45'6043015.4
2016-Jul-21 14:33N 46°11' W 123°51'564270.3
2016-Jul-21 14:32N 45°37' W 122°48'431754.4
2016-Jul-21 14:31N 46°12' W 123°23'20438.9
2016-Jul-21 14:28N 46°05' W 122°56'3942.7
2016-Jul-21 13:33N 46°11' W 123°51'564460.1
2016-Jul-21 13:32N 45°37' W 122°48'291358.4
2016-Jul-21 13:31N 46°05' W 122°56'322333.9
2016-Jul-21 13:30N 45°34' W 122°45'47530.4
2016-Jul-21 13:25N 46°12' W 123°23'2022.6
2016-Jul-21 12:33N 46°11' W 123°51'564181.4
2016-Jul-21 12:32N 45°37' W 122°48'291358.4
2016-Jul-21 12:31N 46°05' W 122°56'206107.1
2016-Jul-21 12:31N 46°12' W 123°23'47776.0
2016-Jul-21 12:27N 45°34' W 122°45'0 0.0
2016-Jul-21 11:33N 45°34' W 122°45'6053769.3
2016-Jul-21 11:33N 46°11' W 123°51'564013.8
2016-Jul-21 11:32N 45°37' W 122°48'29129.7
2016-Jul-21 11:19N 46°05' W 122°56'205637.4
2016-Jul-21 11:19N 46°12' W 123°23'2025.7
2016-Jul-21 10:33N 46°11' W 123°51'563859.7
2016-Jul-21 10:32N 45°37' W 122°48'29401.7
2016-Jul-21 10:28N 46°05' W 122°56'20135.0
2016-Jul-21 10:19N 46°12' W 123°23'473759.4
2016-Jul-21 10:18N 45°34' W 122°45'0 0.0
2016-Jul-21 09:33N 45°34' W 122°45'6043018.1
2016-Jul-21 09:33N 46°11' W 123°51'564096.0
2016-Jul-21 09:32N 45°37' W 122°48'291358.4
2016-Jul-21 09:31N 46°05' W 122°56'20100.3
2016-Jul-21 09:19N 46°12' W 123°23'2025.6
2016-Jul-21 08:31N 46°05' W 122°56'322288.2
2016-Jul-21 08:30N 45°34' W 122°45'6053772.6
2016-Jul-21 08:30N 46°11' W 123°51'564014.1
2016-Jul-21 08:29N 45°37' W 122°48'43114.5
2016-Jul-21 08:07N 46°12' W 123°23'4374.4
2016-Jul-21 07:32N 45°37' W 122°48'431837.7
2016-Jul-21 07:31N 46°12' W 123°23'474338.2
2016-Jul-21 07:30N 45°34' W 122°45'6053772.6
2016-Jul-21 07:30N 46°11' W 123°51'39457.0
2016-Jul-21 07:25N 46°05' W 122°56'3237.9
2016-Jul-21 06:34N 45°34' W 122°45'606145.1
2016-Jul-21 06:33N 46°11' W 123°51'564270.1
2016-Jul-21 06:32N 45°37' W 122°48'29234.1
2016-Jul-21 06:25N 46°05' W 122°56'20100.8
2016-Jul-21 06:13N 46°12' W 123°23'4772.0
2016-Jul-21 05:34N 45°34' W 122°45'606721.1
2016-Jul-21 05:33N 46°11' W 123°51'563786.9
2016-Jul-21 05:32N 45°37' W 122°48'291376.5
2016-Jul-21 05:31N 46°05' W 122°56'3940.5
2016-Jul-21 04:33N 46°11' W 123°51'391099.6
2016-Jul-21 04:31N 46°05' W 122°56'328975.1
2016-Jul-21 04:31N 45°34' W 122°45'4162.9
2016-Jul-21 04:29N 45°37' W 122°48'5659.7
2016-Jul-21 03:33N 46°11' W 123°51'563716.8
2016-Jul-21 03:32N 45°37' W 122°48'291306.8
2016-Jul-21 03:31N 46°05' W 122°56'209160.7
2016-Jul-21 03:31N 46°12' W 123°23'47427.2
2016-Jul-21 03:24N 45°34' W 122°45'6070.2
2016-Jul-21 02:33N 46°11' W 123°51'563649.2
2016-Jul-21 02:32N 45°37' W 122°48'291358.4
2016-Jul-21 02:31N 46°05' W 122°56'322430.8
2016-Jul-21 02:30N 45°34' W 122°45'6062.8
2016-Jul-21 01:33N 46°11' W 123°51'563786.9
2016-Jul-21 01:32N 45°37' W 122°48'4122.6
2016-Jul-21 01:30N 45°34' W 122°45'32851.8
2016-Jul-21 01:28N 46°05' W 122°56'2057.8
2016-Jul-21 01:07N 46°12' W 123°23'4777.0
2016-Jul-21 00:30N 45°34' W 122°45'6053769.2
2016-Jul-21 00:30N 46°11' W 123°51'563584.0
2016-Jul-21 00:29N 45°37' W 122°48'29167.3
2016-Jul-21 00:19N 46°05' W 122°56'3242.6
2016-Jul-20 23:33N 45°34' W 122°45'6030725.3
2016-Jul-20 23:33N 46°11' W 123°51'56861.4
2016-Jul-20 23:29N 45°37' W 122°48'29401.7
2016-Jul-20 23:25N 46°05' W 122°56'3945.3
2016-Jul-20 22:33N 46°11' W 123°51'601215.1
2016-Jul-20 22:30N 45°34' W 122°45'461.5
2016-Jul-20 22:26N 45°37' W 122°48'291414.3
2016-Jul-20 22:25N 46°05' W 122°56'20100.1
2016-Jul-20 22:13N 46°12' W 123°23'2029.2
2016-Jul-20 21:31N 46°05' W 122°56'393273.3
2016-Jul-20 21:30N 46°11' W 123°51'60215090.5
2016-Jul-20 21:30N 45°34' W 122°45'4251.5
2016-Jul-20 21:29N 45°37' W 122°48'43156.2
2016-Jul-20 21:13N 46°12' W 123°23'4771.4
2016-Jul-20 20:33N 45°34' W 122°45'6071696.8
2016-Jul-20 20:33N 46°11' W 123°51'391027.4
2016-Jul-20 20:31N 46°05' W 122°56'207328.6
2016-Jul-20 20:31N 46°12' W 123°23'431696.3
2016-Jul-20 20:29N 45°37' W 122°48'4 4.4
2016-Jul-20 19:33N 45°34' W 122°45'6035848.4
2016-Jul-20 19:33N 46°11' W 123°51'20499.0
2016-Jul-20 19:31N 46°12' W 123°23'20426.1
2016-Jul-20 19:28N 46°05' W 122°56'291022.2
2016-Jul-20 19:26N 45°37' W 122°48'4 4.7
2016-Jul-20 18:33N 45°34' W 122°45'6053769.3
2016-Jul-20 18:33N 46°11' W 123°51'563520.9
2016-Jul-20 18:32N 45°37' W 122°48'29236.8
2016-Jul-20 18:25N 46°05' W 122°56'20100.4
2016-Jul-20 18:13N 46°12' W 123°23'2029.6
2016-Jul-20 17:33N 46°11' W 123°51'391058.3
2016-Jul-20 17:31N 46°05' W 122°56'206662.3
2016-Jul-20 17:31N 46°12' W 123°23'475639.1
2016-Jul-20 17:30N 45°34' W 122°45'461.2
2016-Jul-20 17:26N 45°37' W 122°48'5663.1
2016-Jul-20 16:33N 46°11' W 123°51'20495.5
2016-Jul-20 16:31N 46°12' W 123°23'47798.1
2016-Jul-20 16:27N 45°34' W 122°45'32839.5
2016-Jul-20 16:25N 46°05' W 122°56'291012.2
2016-Jul-20 16:23N 45°37' W 122°48'4 4.9
2016-Jul-20 15:33N 45°34' W 122°45'6043018.1
2016-Jul-20 15:33N 46°11' W 123°51'391042.6
2016-Jul-20 15:31N 46°05' W 122°56'29362.2
2016-Jul-20 15:26N 45°37' W 122°48'43347.7
2016-Jul-20 15:19N 46°12' W 123°23'4762.0
2016-Jul-20 14:33N 45°34' W 122°45'6043018.1
2016-Jul-20 14:33N 46°11' W 123°51'563237.2
2016-Jul-20 14:32N 45°37' W 122°48'291376.5
2016-Jul-20 14:31N 46°05' W 122°56'20198.1
2016-Jul-20 14:25N 46°12' W 123°23'4754.8
2016-Jul-20 13:33N 45°34' W 122°45'6030727.2
2016-Jul-20 13:33N 46°11' W 123°51'563521.2
2016-Jul-20 13:32N 45°37' W 122°48'431754.2
2016-Jul-20 13:31N 46°12' W 123°23'20210.0
2016-Jul-20 13:25N 46°05' W 122°56'3945.3
2016-Jul-20 12:33N 46°11' W 123°51'391042.6
2016-Jul-20 12:31N 46°05' W 122°56'29363.5
2016-Jul-20 12:26N 45°37' W 122°48'431.1
2016-Jul-20 12:18N 45°34' W 122°45'47332.4
2016-Jul-20 12:10N 46°12' W 123°23'2032.1
2016-Jul-20 11:33N 46°11' W 123°51'563344.9
2016-Jul-20 11:32N 45°37' W 122°48'431795.0
2016-Jul-20 11:31N 46°12' W 123°23'20426.1
2016-Jul-20 11:28N 46°05' W 122°56'323241.6
2016-Jul-20 11:27N 45°34' W 122°45'0 0.0
2016-Jul-20 10:33N 45°34' W 122°45'6071696.8
2016-Jul-20 10:33N 46°11' W 123°51'563237.2
2016-Jul-20 10:32N 45°37' W 122°48'291340.8
2016-Jul-20 10:31N 46°05' W 122°56'20379.7
2016-Jul-20 10:28N 46°12' W 123°23'0 0.0
2016-Jul-20 09:34N 46°12' W 123°23'202426.3
2016-Jul-20 09:33N 46°11' W 123°51'563345.1
2016-Jul-20 09:32N 45°37' W 122°48'4128.9
2016-Jul-20 09:30N 45°34' W 122°45'32361.2
2016-Jul-20 09:25N 46°05' W 122°56'3237.7
2016-Jul-20 08:33N 45°34' W 122°45'60107538.4
2016-Jul-20 08:33N 46°11' W 123°51'563087.8
2016-Jul-20 08:32N 45°37' W 122°48'291358.4
2016-Jul-20 08:31N 46°05' W 122°56'20100.5
2016-Jul-20 08:19N 46°12' W 123°23'4762.2
2016-Jul-20 07:33N 45°34' W 122°45'6021509.0
2016-Jul-20 07:33N 46°11' W 123°51'20466.0
2016-Jul-20 07:31N 46°12' W 123°23'431696.5
2016-Jul-20 07:29N 45°37' W 122°48'291454.1
2016-Jul-20 07:28N 46°05' W 122°56'3235.5
2016-Jul-20 06:33N 45°34' W 122°45'6026886.3
2016-Jul-20 06:33N 46°11' W 123°51'391058.3
2016-Jul-20 06:31N 46°05' W 122°56'207329.3
2016-Jul-20 06:31N 46°12' W 123°23'43567.6
2016-Jul-20 06:26N 45°37' W 122°48'5663.2
2016-Jul-20 05:33N 46°11' W 123°51'562867.2
2016-Jul-20 05:32N 45°37' W 122°48'431905.8
2016-Jul-20 05:31N 46°12' W 123°23'20428.6
2016-Jul-20 05:28N 46°05' W 122°56'3942.9
2016-Jul-20 04:33N 46°11' W 123°51'563290.3
2016-Jul-20 04:32N 45°37' W 122°48'291290.5
2016-Jul-20 04:31N 46°05' W 122°56'32550.4
2016-Jul-20 04:27N 45°34' W 122°45'471120.4
2016-Jul-20 04:25N 46°12' W 123°23'2022.8
2016-Jul-20 03:33N 46°11' W 123°51'562826.8
2016-Jul-20 03:32N 45°37' W 122°48'291474.9
2016-Jul-20 03:31N 46°05' W 122°56'32525.6
2016-Jul-20 03:27N 45°34' W 122°45'47329.8
2016-Jul-20 03:19N 46°12' W 123°23'4762.2
2016-Jul-20 02:33N 45°34' W 122°45'6021509.0
2016-Jul-20 02:33N 46°11' W 123°51'563345.1
2016-Jul-20 02:32N 45°37' W 122°48'431696.3
2016-Jul-20 02:31N 46°12' W 123°23'20208.2
2016-Jul-20 02:25N 46°05' W 122°56'3945.5
2016-Jul-20 01:33N 46°11' W 123°51'601250.5
2016-Jul-20 01:30N 45°34' W 122°45'4185.5
2016-Jul-20 01:29N 45°37' W 122°48'29409.7
2016-Jul-20 01:25N 46°05' W 122°56'20101.1
2016-Jul-20 01:13N 46°12' W 123°23'2029.7
2016-Jul-20 00:33N 46°11' W 123°51'39932.1
2016-Jul-20 00:31N 46°05' W 122°56'206107.1
2016-Jul-20 00:31N 46°12' W 123°23'431734.5
2016-Jul-20 00:29N 45°37' W 122°48'4174.4
2016-Jul-20 00:28N 45°34' W 122°45'0 0.0
2016-Jul-19 23:33N 45°34' W 122°45'60107538.4
2016-Jul-19 23:33N 46°11' W 123°51'562908.8
2016-Jul-19 23:32N 45°37' W 122°48'43346.1
2016-Jul-19 23:25N 46°12' W 123°23'20208.8
2016-Jul-19 23:19N 46°05' W 122°56'3242.7
2016-Jul-19 22:33N 45°34' W 122°45'6053769.2
2016-Jul-19 22:33N 46°11' W 123°51'562951.6
2016-Jul-19 22:32N 45°37' W 122°48'431774.3
2016-Jul-19 22:31N 46°12' W 123°23'20211.2
2016-Jul-19 22:25N 46°05' W 122°56'3945.5
2016-Jul-19 21:33N 46°11' W 123°51'39964.1
2016-Jul-19 21:31N 46°05' W 122°56'324024.0
2016-Jul-19 21:30N 45°34' W 122°45'4197.8
2016-Jul-19 21:29N 45°37' W 122°48'5659.9
2016-Jul-19 20:33N 46°11' W 123°51'20451.1
2016-Jul-19 20:31N 46°12' W 123°23'431678.1
2016-Jul-19 20:29N 45°37' W 122°48'4137.4
2016-Jul-19 20:27N 45°34' W 122°45'32778.0
2016-Jul-19 20:25N 46°05' W 122°56'3237.7
2016-Jul-19 19:33N 45°34' W 122°45'6035843.9
2016-Jul-19 19:33N 46°11' W 123°51'563087.6
2016-Jul-19 19:32N 45°37' W 122°48'291395.1
2016-Jul-19 19:31N 46°05' W 122°56'205637.4
2016-Jul-19 19:31N 46°12' W 123°23'2020.4
2016-Jul-19 18:33N 46°11' W 123°51'39951.0
2016-Jul-19 18:31N 46°05' W 122°56'2014657.1
2016-Jul-19 18:31N 46°12' W 123°23'477049.6
2016-Jul-19 18:30N 45°34' W 122°45'434.3
2016-Jul-19 18:23N 45°37' W 122°48'5667.1
2016-Jul-19 17:33N 46°11' W 123°51'562749.4
2016-Jul-19 17:32N 45°37' W 122°48'431816.1
2016-Jul-19 17:31N 46°12' W 123°23'478904.8
2016-Jul-19 17:30N 45°34' W 122°45'32351.5
2016-Jul-19 17:25N 46°05' W 122°56'3945.5
2016-Jul-19 16:33N 46°11' W 123°51'562951.6
2016-Jul-19 16:32N 45°37' W 122°48'4200.5
2016-Jul-19 16:31N 45°34' W 122°45'3223339.5
2016-Jul-19 16:31N 46°05' W 122°56'2014657.1
2016-Jul-19 16:31N 46°12' W 123°23'4749.2
2016-Jul-19 15:33N 45°34' W 122°45'6026886.3
2016-Jul-19 15:33N 46°11' W 123°51'562826.8
2016-Jul-19 15:32N 45°37' W 122°48'291323.6
2016-Jul-19 15:31N 46°05' W 122°56'2010469.4
2016-Jul-19 15:31N 46°12' W 123°23'2020.4
2016-Jul-19 14:33N 46°11' W 123°51'39944.6
2016-Jul-19 14:31N 46°05' W 122°56'207328.6
2016-Jul-19 14:31N 46°12' W 123°23'47854.4
2016-Jul-19 14:27N 45°34' W 122°45'4197.6
2016-Jul-19 14:26N 45°37' W 122°48'4 4.7
2016-Jul-19 13:33N 45°34' W 122°45'6053772.6
2016-Jul-19 13:33N 46°11' W 123°51'39429.1
2016-Jul-19 13:28N 46°05' W 122°56'291022.2
2016-Jul-19 13:26N 45°37' W 122°48'431754.2
2016-Jul-19 13:25N 46°12' W 123°23'4755.0
2016-Jul-19 12:33N 45°34' W 122°45'6071692.3
2016-Jul-19 12:33N 46°11' W 123°51'562675.9
2016-Jul-19 12:32N 45°37' W 122°48'43345.3
2016-Jul-19 12:25N 46°12' W 123°23'20426.1
2016-Jul-19 12:22N 46°05' W 122°56'2934.6
2016-Jul-19 11:32N 45°37' W 122°48'291323.6
2016-Jul-19 11:31N 46°05' W 122°56'394853.5
2016-Jul-19 11:30N 46°11' W 123°51'601229.1
2016-Jul-19 11:27N 45°34' W 122°45'471044.4
2016-Jul-19 11:25N 46°12' W 123°23'4754.9
2016-Jul-19 10:33N 45°34' W 122°45'60107538.4
2016-Jul-19 10:33N 46°11' W 123°51'562749.4
2016-Jul-19 10:32N 45°37' W 122°48'29166.2
2016-Jul-19 10:22N 46°05' W 122°56'3948.5
2016-Jul-19 09:33N 46°11' W 123°51'601463.1
2016-Jul-19 09:31N 45°34' W 122°45'3216668.0
2016-Jul-19 09:31N 46°05' W 122°56'29367.4
2016-Jul-19 09:26N 45°37' W 122°48'431734.5
2016-Jul-19 09:25N 46°12' W 123°23'2022.9
2016-Jul-19 08:33N 46°11' W 123°51'562573.1
2016-Jul-19 08:32N 45°37' W 122°48'291395.1
2016-Jul-19 08:31N 46°05' W 122°56'325072.9
2016-Jul-19 08:30N 45°34' W 122°45'47239.3
2016-Jul-19 08:19N 46°12' W 123°23'4762.3
2016-Jul-19 07:33N 45°34' W 122°45'60215090.5
2016-Jul-19 07:33N 46°11' W 123°51'562749.4
2016-Jul-19 07:32N 45°37' W 122°48'29389.6
2016-Jul-19 07:28N 46°05' W 122°56'20385.7
2016-Jul-19 07:25N 46°12' W 123°23'4716.5
2016-Jul-19 04:33N 45°34' W 122°45'6035846.1
2016-Jul-19 04:33N 46°11' W 123°51'39914.0
2016-Jul-19 04:31N 46°05' W 122°56'29983.2
2016-Jul-19 04:29N 45°37' W 122°48'43586.9
2016-Jul-19 04:25N 46°12' W 123°23'2022.9
2016-Jul-19 03:33N 46°11' W 123°51'39890.8
2016-Jul-19 03:31N 46°05' W 122°56'208142.9
2016-Jul-19 03:31N 46°12' W 123°23'431624.9
2016-Jul-19 03:29N 45°37' W 122°48'4156.4
2016-Jul-19 03:28N 45°34' W 122°45'6066.3
2016-Jul-19 02:33N 46°11' W 123°51'562418.1
2016-Jul-19 02:32N 45°37' W 122°48'291376.5
2016-Jul-19 02:31N 46°05' W 122°56'325833.8
2016-Jul-19 02:31N 45°34' W 122°45'47240.0
2016-Jul-19 02:19N 46°12' W 123°23'2025.9
2016-Jul-19 01:33N 46°11' W 123°51'39919.9
2016-Jul-19 01:31N 46°05' W 122°56'205234.7
2016-Jul-19 01:31N 46°12' W 123°23'47904.7
2016-Jul-19 01:28N 45°34' W 122°45'484.2
2016-Jul-19 01:25N 45°37' W 122°48'4 4.8
2016-Jul-19 00:33N 45°34' W 122°45'60107545.2
2016-Jul-19 00:33N 46°11' W 123°51'39896.5
2016-Jul-19 00:31N 46°05' W 122°56'29532.2
2016-Jul-19 00:28N 45°37' W 122°48'43172.5
2016-Jul-19 00:13N 46°12' W 123°23'2029.9
2016-Jul-18 23:33N 46°11' W 123°51'39896.5
2016-Jul-18 23:31N 46°05' W 122°56'297941.6
2016-Jul-18 23:31N 45°37' W 122°48'42117.2
2016-Jul-18 23:31N 45°34' W 122°45'47158.3
2016-Jul-18 23:13N 46°12' W 123°23'2029.9
2016-Jul-18 22:33N 46°11' W 123°51'39885.2
2016-Jul-18 22:31N 46°05' W 122°56'297374.4
2016-Jul-18 22:31N 45°37' W 122°48'43432.5
2016-Jul-18 22:25N 46°12' W 123°23'2022.9
2016-Jul-18 21:34N 46°11' W 123°51'39863.5
2016-Jul-18 21:31N 46°05' W 122°56'299385.5
2016-Jul-18 21:31N 45°37' W 122°48'43431.2
2016-Jul-18 21:25N 46°12' W 123°23'2022.9
2016-Jul-18 20:33N 46°11' W 123°51'39272.8
2016-Jul-18 20:25N 46°05' W 122°56'29277.5
2016-Jul-18 20:19N 45°37' W 122°48'5674.1
2016-Jul-18 19:34N 46°11' W 123°51'39879.7
2016-Jul-18 19:31N 46°05' W 122°56'29534.9
2016-Jul-18 19:28N 45°37' W 122°48'5661.8
2016-Jul-18 18:33N 46°11' W 123°51'39411.5
2016-Jul-18 18:28N 46°05' W 122°56'29187.7
2016-Jul-18 18:19N 45°37' W 122°48'5674.2
2016-Jul-18 17:34N 46°11' W 123°51'39874.2
2016-Jul-18 17:31N 46°05' W 122°56'207328.6
2016-Jul-18 17:31N 46°12' W 123°23'4351455.7
2016-Jul-18 17:31N 45°37' W 122°48'5658.5
2016-Jul-18 16:33N 46°11' W 123°51'39885.2
2016-Jul-18 16:31N 46°05' W 122°56'29532.2
2016-Jul-18 16:28N 45°37' W 122°48'43123.1
2016-Jul-18 16:07N 46°12' W 123°23'2035.3
2016-Jul-18 15:33N 46°11' W 123°51'561173.7
2016-Jul-18 15:31N 45°37' W 122°48'29296.7
2016-Jul-18 15:25N 46°05' W 122°56'2067.2
2016-Jul-18 15:07N 46°12' W 123°23'2035.4
2016-Jul-18 14:34N 46°11' W 123°51'56568.6
2016-Jul-18 14:28N 45°37' W 122°48'29618.2
2016-Jul-18 14:25N 46°05' W 122°56'208142.9
2016-Jul-18 14:25N 46°12' W 123°23'2022.7
2016-Jul-18 13:31N 46°05' W 122°56'398797.0
2016-Jul-18 13:31N 46°11' W 123°51'56373.8
2016-Jul-18 13:22N 45°37' W 122°48'2933.9
2016-Jul-18 12:31N 46°05' W 122°56'398279.3
2016-Jul-18 12:31N 46°11' W 123°51'561140.3
2016-Jul-18 12:28N 45°37' W 122°48'43882.1
2016-Jul-18 12:25N 46°12' W 123°23'2022.7
2016-Jul-18 11:31N 46°05' W 122°56'299385.5
2016-Jul-18 11:31N 45°37' W 122°48'56100352.8
2016-Jul-18 11:31N 46°11' W 123°51'5655.8
2016-Jul-18 10:31N 45°37' W 122°48'5640141.1
2016-Jul-18 10:31N 46°11' W 123°51'39199.6
2016-Jul-18 10:19N 46°05' W 122°56'2935.7
2016-Jul-18 09:31N 45°37' W 122°48'5650176.4
2016-Jul-18 09:31N 46°11' W 123°51'39267.6
2016-Jul-18 09:22N 46°05' W 122°56'206662.3
2016-Jul-18 09:22N 46°12' W 123°23'2024.0
2016-Jul-18 08:31N 46°05' W 122°56'2012215.5
2016-Jul-18 08:31N 46°12' W 123°23'4351461.7
2016-Jul-18 08:31N 45°37' W 122°48'56100352.8
2016-Jul-18 08:31N 46°11' W 123°51'5655.8
2016-Jul-18 07:31N 45°37' W 122°48'56100346.2
2016-Jul-18 07:31N 46°11' W 123°51'39405.6
2016-Jul-18 07:25N 46°05' W 122°56'20379.8
2016-Jul-18 07:22N 46°12' W 123°23'2023.0
2016-Jul-18 06:31N 46°11' W 123°51'561115.0
2016-Jul-18 06:28N 45°37' W 122°48'29629.5
2016-Jul-18 06:25N 46°05' W 122°56'205234.7
2016-Jul-18 06:25N 46°12' W 123°23'2022.7
2016-Jul-18 05:31N 46°05' W 122°56'3911729.1
2016-Jul-18 05:31N 46°11' W 123°51'561108.8
2016-Jul-18 05:28N 45°37' W 122°48'2930.3
2016-Jul-18 04:31N 46°05' W 122°56'2018321.4
2016-Jul-18 04:31N 46°12' W 123°23'4330873.4
2016-Jul-18 04:31N 45°37' W 122°48'56100352.8
2016-Jul-18 04:31N 46°11' W 123°51'5655.8
2016-Jul-18 03:31N 45°37' W 122°48'5666901.9
2016-Jul-18 03:31N 46°11' W 123°51'39847.9
2016-Jul-18 03:28N 46°05' W 122°56'2930.1
2016-Jul-18 02:31N 45°37' W 122°48'5666901.9
2016-Jul-18 02:31N 46°11' W 123°51'20196.0
2016-Jul-18 02:25N 46°12' W 123°23'20208.8
2016-Jul-18 02:19N 46°05' W 122°56'0 0.0
2016-Jul-18 01:31N 46°05' W 122°56'298603.4
2016-Jul-18 01:31N 45°37' W 122°48'56200705.6
2016-Jul-18 01:31N 46°11' W 123°51'  

Dump ship's entire track history